<?xml version="1.0" encoding="UTF-8" standalone="no" ?>
<gpx xmlns="http://www.topografix.com/GPX/1/1" xmlns:xsi="http://www.w3.org/2001/XMLSchema-instance" xsi:schemaLocation="http://www.topografix.com/GPX/1/1 http://www.topografix.com/GPX/1/1/gpx.xsd" version="1.1" creator="VisuGPX - https://www.visugpx.com">
  <metadata>
    <name>2026_vtt_39km_le_dernier</name>
  </metadata>
  <trk>
    <name><![CDATA[2026 VTT  39km le dernier-23180054]]></name>
    <extensions>
      <line xmlns="http://www.topografix.com/GPX/gpx_style/0/2">
        <color>0000FF</color>
        <width>4</width>
      </line>
    </extensions>
    <trkseg>
      <trkpt lat="45.99852" lon="4.17616">
        <ele>436</ele>
        <time>2026-03-19T14:37:02Z</time>
      </trkpt>
      <trkpt lat="45.99875" lon="4.17673">
        <ele>437</ele>
        <time>2026-03-19T14:37:13Z</time>
      </trkpt>
      <trkpt lat="45.99855" lon="4.1769">
        <ele>438</ele>
        <time>2026-03-19T14:37:18Z</time>
      </trkpt>
      <trkpt lat="45.99851" lon="4.17701">
        <ele>438</ele>
        <time>2026-03-19T14:37:20Z</time>
      </trkpt>
      <trkpt lat="45.99845" lon="4.17708">
        <ele>438</ele>
        <time>2026-03-19T14:37:22Z</time>
      </trkpt>
      <trkpt lat="45.99838" lon="4.17715">
        <ele>438</ele>
        <time>2026-03-19T14:37:24Z</time>
      </trkpt>
      <trkpt lat="45.99864" lon="4.1777">
        <ele>438</ele>
        <time>2026-03-19T14:37:35Z</time>
      </trkpt>
      <trkpt lat="45.99825" lon="4.17809">
        <ele>438</ele>
        <time>2026-03-19T14:37:46Z</time>
      </trkpt>
      <trkpt lat="45.99802" lon="4.17832">
        <ele>437</ele>
        <time>2026-03-19T14:37:52Z</time>
      </trkpt>
      <trkpt lat="45.99736" lon="4.17894">
        <ele>435</ele>
        <time>2026-03-19T14:38:11Z</time>
      </trkpt>
      <trkpt lat="45.99688" lon="4.17945">
        <ele>433</ele>
        <time>2026-03-19T14:38:25Z</time>
      </trkpt>
      <trkpt lat="45.99669" lon="4.17965">
        <ele>431</ele>
        <time>2026-03-19T14:38:30Z</time>
      </trkpt>
      <trkpt lat="45.99635" lon="4.17999">
        <ele>426</ele>
        <time>2026-03-19T14:38:40Z</time>
      </trkpt>
      <trkpt lat="45.99636" lon="4.18024">
        <ele>426</ele>
        <time>2026-03-19T14:38:44Z</time>
      </trkpt>
      <trkpt lat="45.9958" lon="4.1806">
        <ele>419</ele>
        <time>2026-03-19T14:38:58Z</time>
      </trkpt>
      <trkpt lat="45.99575" lon="4.18064">
        <ele>418</ele>
        <time>2026-03-19T14:39:00Z</time>
      </trkpt>
      <trkpt lat="45.9953" lon="4.18139">
        <ele>409</ele>
        <time>2026-03-19T14:39:16Z</time>
      </trkpt>
      <trkpt lat="45.99523" lon="4.18149">
        <ele>408</ele>
        <time>2026-03-19T14:39:18Z</time>
      </trkpt>
      <trkpt lat="45.99514" lon="4.18162">
        <ele>406</ele>
        <time>2026-03-19T14:39:21Z</time>
      </trkpt>
      <trkpt lat="45.99506" lon="4.18169">
        <ele>405</ele>
        <time>2026-03-19T14:39:23Z</time>
      </trkpt>
      <trkpt lat="45.99492" lon="4.18178">
        <ele>402</ele>
        <time>2026-03-19T14:39:27Z</time>
      </trkpt>
      <trkpt lat="45.99487" lon="4.18182">
        <ele>401</ele>
        <time>2026-03-19T14:39:28Z</time>
      </trkpt>
      <trkpt lat="45.9948" lon="4.18189">
        <ele>399</ele>
        <time>2026-03-19T14:39:30Z</time>
      </trkpt>
      <trkpt lat="45.99473" lon="4.18198">
        <ele>398</ele>
        <time>2026-03-19T14:39:32Z</time>
      </trkpt>
      <trkpt lat="45.99453" lon="4.1824">
        <ele>393</ele>
        <time>2026-03-19T14:39:40Z</time>
      </trkpt>
      <trkpt lat="45.99443" lon="4.18258">
        <ele>390</ele>
        <time>2026-03-19T14:39:44Z</time>
      </trkpt>
      <trkpt lat="45.99436" lon="4.18266">
        <ele>389</ele>
        <time>2026-03-19T14:39:46Z</time>
      </trkpt>
      <trkpt lat="45.99427" lon="4.18272">
        <ele>387</ele>
        <time>2026-03-19T14:39:49Z</time>
      </trkpt>
      <trkpt lat="45.99354" lon="4.18305">
        <ele>374</ele>
        <time>2026-03-19T14:40:06Z</time>
      </trkpt>
      <trkpt lat="45.99307" lon="4.18322">
        <ele>368</ele>
        <time>2026-03-19T14:40:18Z</time>
      </trkpt>
      <trkpt lat="45.9929" lon="4.18328">
        <ele>366</ele>
        <time>2026-03-19T14:40:22Z</time>
      </trkpt>
      <trkpt lat="45.99272" lon="4.18332">
        <ele>364</ele>
        <time>2026-03-19T14:40:26Z</time>
      </trkpt>
      <trkpt lat="45.99249" lon="4.18335">
        <ele>362</ele>
        <time>2026-03-19T14:40:32Z</time>
      </trkpt>
      <trkpt lat="45.99235" lon="4.18337">
        <ele>359</ele>
        <time>2026-03-19T14:40:35Z</time>
      </trkpt>
      <trkpt lat="45.99224" lon="4.18341">
        <ele>357</ele>
        <time>2026-03-19T14:40:37Z</time>
      </trkpt>
      <trkpt lat="45.9908" lon="4.18425">
        <ele>337</ele>
        <time>2026-03-19T14:41:14Z</time>
      </trkpt>
      <trkpt lat="45.99066" lon="4.18429">
        <ele>336</ele>
        <time>2026-03-19T14:41:17Z</time>
      </trkpt>
      <trkpt lat="45.99057" lon="4.18439">
        <ele>336</ele>
        <time>2026-03-19T14:41:20Z</time>
      </trkpt>
      <trkpt lat="45.99032" lon="4.18461">
        <ele>335</ele>
        <time>2026-03-19T14:41:27Z</time>
      </trkpt>
      <trkpt lat="45.99005" lon="4.18476">
        <ele>335</ele>
        <time>2026-03-19T14:41:33Z</time>
      </trkpt>
      <trkpt lat="45.98993" lon="4.18482">
        <ele>335</ele>
        <time>2026-03-19T14:41:36Z</time>
      </trkpt>
      <trkpt lat="45.98983" lon="4.18484">
        <ele>335</ele>
        <time>2026-03-19T14:41:39Z</time>
      </trkpt>
      <trkpt lat="45.98972" lon="4.18484">
        <ele>336</ele>
        <time>2026-03-19T14:41:41Z</time>
      </trkpt>
      <trkpt lat="45.98961" lon="4.18481">
        <ele>336</ele>
        <time>2026-03-19T14:41:44Z</time>
      </trkpt>
      <trkpt lat="45.98897" lon="4.18454">
        <ele>335</ele>
        <time>2026-03-19T14:41:59Z</time>
      </trkpt>
      <trkpt lat="45.98888" lon="4.18456">
        <ele>335</ele>
        <time>2026-03-19T14:42:02Z</time>
      </trkpt>
      <trkpt lat="45.98846" lon="4.1845">
        <ele>334</ele>
        <time>2026-03-19T14:42:11Z</time>
      </trkpt>
      <trkpt lat="45.98822" lon="4.18453">
        <ele>334</ele>
        <time>2026-03-19T14:42:17Z</time>
      </trkpt>
      <trkpt lat="45.98795" lon="4.18459">
        <ele>334</ele>
        <time>2026-03-19T14:42:23Z</time>
      </trkpt>
      <trkpt lat="45.98752" lon="4.18479">
        <ele>336</ele>
        <time>2026-03-19T14:42:34Z</time>
      </trkpt>
      <trkpt lat="45.98722" lon="4.18506">
        <ele>338</ele>
        <time>2026-03-19T14:42:42Z</time>
      </trkpt>
      <trkpt lat="45.98696" lon="4.18534">
        <ele>338</ele>
        <time>2026-03-19T14:42:50Z</time>
      </trkpt>
      <trkpt lat="45.98657" lon="4.18558">
        <ele>337</ele>
        <time>2026-03-19T14:43:00Z</time>
      </trkpt>
      <trkpt lat="45.9864" lon="4.18571">
        <ele>337</ele>
        <time>2026-03-19T14:43:04Z</time>
      </trkpt>
      <trkpt lat="45.98622" lon="4.1859">
        <ele>337</ele>
        <time>2026-03-19T14:43:09Z</time>
      </trkpt>
      <trkpt lat="45.98602" lon="4.1862">
        <ele>337</ele>
        <time>2026-03-19T14:43:16Z</time>
      </trkpt>
      <trkpt lat="45.98585" lon="4.18645">
        <ele>338</ele>
        <time>2026-03-19T14:43:22Z</time>
      </trkpt>
      <trkpt lat="45.98571" lon="4.18676">
        <ele>338</ele>
        <time>2026-03-19T14:43:28Z</time>
      </trkpt>
      <trkpt lat="45.98565" lon="4.18708">
        <ele>338</ele>
        <time>2026-03-19T14:43:33Z</time>
      </trkpt>
      <trkpt lat="45.98564" lon="4.18735">
        <ele>339</ele>
        <time>2026-03-19T14:43:38Z</time>
      </trkpt>
      <trkpt lat="45.98572" lon="4.18791">
        <ele>339</ele>
        <time>2026-03-19T14:43:47Z</time>
      </trkpt>
      <trkpt lat="45.98575" lon="4.18813">
        <ele>338</ele>
        <time>2026-03-19T14:43:51Z</time>
      </trkpt>
      <trkpt lat="45.98583" lon="4.18847">
        <ele>339</ele>
        <time>2026-03-19T14:43:56Z</time>
      </trkpt>
      <trkpt lat="45.98585" lon="4.18862">
        <ele>339</ele>
        <time>2026-03-19T14:43:59Z</time>
      </trkpt>
      <trkpt lat="45.98579" lon="4.18924">
        <ele>338</ele>
        <time>2026-03-19T14:44:09Z</time>
      </trkpt>
      <trkpt lat="45.9858" lon="4.18949">
        <ele>339</ele>
        <time>2026-03-19T14:44:13Z</time>
      </trkpt>
      <trkpt lat="45.98589" lon="4.1899">
        <ele>342</ele>
        <time>2026-03-19T14:44:20Z</time>
      </trkpt>
      <trkpt lat="45.98594" lon="4.19006">
        <ele>343</ele>
        <time>2026-03-19T14:44:23Z</time>
      </trkpt>
      <trkpt lat="45.98637" lon="4.19004">
        <ele>349</ele>
        <time>2026-03-19T14:44:33Z</time>
      </trkpt>
      <trkpt lat="45.98708" lon="4.18997">
        <ele>360</ele>
        <time>2026-03-19T14:44:50Z</time>
      </trkpt>
      <trkpt lat="45.98736" lon="4.18993">
        <ele>365</ele>
        <time>2026-03-19T14:44:56Z</time>
      </trkpt>
      <trkpt lat="45.98755" lon="4.18988">
        <ele>367</ele>
        <time>2026-03-19T14:45:01Z</time>
      </trkpt>
      <trkpt lat="45.98761" lon="4.18981">
        <ele>368</ele>
        <time>2026-03-19T14:45:02Z</time>
      </trkpt>
      <trkpt lat="45.98764" lon="4.18972">
        <ele>368</ele>
        <time>2026-03-19T14:45:04Z</time>
      </trkpt>
      <trkpt lat="45.98768" lon="4.18963">
        <ele>369</ele>
        <time>2026-03-19T14:45:06Z</time>
      </trkpt>
      <trkpt lat="45.98783" lon="4.18951">
        <ele>371</ele>
        <time>2026-03-19T14:45:10Z</time>
      </trkpt>
      <trkpt lat="45.98798" lon="4.18928">
        <ele>373</ele>
        <time>2026-03-19T14:45:15Z</time>
      </trkpt>
      <trkpt lat="45.98812" lon="4.1896">
        <ele>377</ele>
        <time>2026-03-19T14:45:21Z</time>
      </trkpt>
      <trkpt lat="45.98822" lon="4.18979">
        <ele>379</ele>
        <time>2026-03-19T14:45:25Z</time>
      </trkpt>
      <trkpt lat="45.98838" lon="4.18995">
        <ele>383</ele>
        <time>2026-03-19T14:45:29Z</time>
      </trkpt>
      <trkpt lat="45.98855" lon="4.19007">
        <ele>385</ele>
        <time>2026-03-19T14:45:34Z</time>
      </trkpt>
      <trkpt lat="45.9887" lon="4.19015">
        <ele>387</ele>
        <time>2026-03-19T14:45:38Z</time>
      </trkpt>
      <trkpt lat="45.98887" lon="4.19016">
        <ele>390</ele>
        <time>2026-03-19T14:45:42Z</time>
      </trkpt>
      <trkpt lat="45.98918" lon="4.19019">
        <ele>394</ele>
        <time>2026-03-19T14:45:49Z</time>
      </trkpt>
      <trkpt lat="45.98936" lon="4.19014">
        <ele>396</ele>
        <time>2026-03-19T14:45:53Z</time>
      </trkpt>
      <trkpt lat="45.9896" lon="4.19014">
        <ele>398</ele>
        <time>2026-03-19T14:45:59Z</time>
      </trkpt>
      <trkpt lat="45.9902" lon="4.1901">
        <ele>401</ele>
        <time>2026-03-19T14:46:13Z</time>
      </trkpt>
      <trkpt lat="45.99029" lon="4.19011">
        <ele>402</ele>
        <time>2026-03-19T14:46:15Z</time>
      </trkpt>
      <trkpt lat="45.991" lon="4.19037">
        <ele>405</ele>
        <time>2026-03-19T14:46:32Z</time>
      </trkpt>
      <trkpt lat="45.99105" lon="4.19043">
        <ele>406</ele>
        <time>2026-03-19T14:46:34Z</time>
      </trkpt>
      <trkpt lat="45.99107" lon="4.1905">
        <ele>406</ele>
        <time>2026-03-19T14:46:35Z</time>
      </trkpt>
      <trkpt lat="45.99118" lon="4.1913">
        <ele>406</ele>
        <time>2026-03-19T14:46:48Z</time>
      </trkpt>
      <trkpt lat="45.99131" lon="4.19228">
        <ele>406</ele>
        <time>2026-03-19T14:47:04Z</time>
      </trkpt>
      <trkpt lat="45.99169" lon="4.19194">
        <ele>413</ele>
        <time>2026-03-19T14:47:15Z</time>
      </trkpt>
      <trkpt lat="45.99215" lon="4.19221">
        <ele>419</ele>
        <time>2026-03-19T14:47:26Z</time>
      </trkpt>
      <trkpt lat="45.99244" lon="4.19236">
        <ele>423</ele>
        <time>2026-03-19T14:47:33Z</time>
      </trkpt>
      <trkpt lat="45.99268" lon="4.19254">
        <ele>427</ele>
        <time>2026-03-19T14:47:40Z</time>
      </trkpt>
      <trkpt lat="45.99292" lon="4.19287">
        <ele>430</ele>
        <time>2026-03-19T14:47:47Z</time>
      </trkpt>
      <trkpt lat="45.99323" lon="4.19302">
        <ele>433</ele>
        <time>2026-03-19T14:47:55Z</time>
      </trkpt>
      <trkpt lat="45.99358" lon="4.19307">
        <ele>438</ele>
        <time>2026-03-19T14:48:03Z</time>
      </trkpt>
      <trkpt lat="45.99402" lon="4.19323">
        <ele>445</ele>
        <time>2026-03-19T14:48:14Z</time>
      </trkpt>
      <trkpt lat="45.99442" lon="4.19329">
        <ele>450</ele>
        <time>2026-03-19T14:48:23Z</time>
      </trkpt>
      <trkpt lat="45.99482" lon="4.19344">
        <ele>454</ele>
        <time>2026-03-19T14:48:33Z</time>
      </trkpt>
      <trkpt lat="45.99506" lon="4.19355">
        <ele>456</ele>
        <time>2026-03-19T14:48:39Z</time>
      </trkpt>
      <trkpt lat="45.99528" lon="4.19388">
        <ele>457</ele>
        <time>2026-03-19T14:48:46Z</time>
      </trkpt>
      <trkpt lat="45.99565" lon="4.19451">
        <ele>460</ele>
        <time>2026-03-19T14:49:00Z</time>
      </trkpt>
      <trkpt lat="45.99597" lon="4.19489">
        <ele>462</ele>
        <time>2026-03-19T14:49:09Z</time>
      </trkpt>
      <trkpt lat="45.99626" lon="4.19514">
        <ele>461</ele>
        <time>2026-03-19T14:49:17Z</time>
      </trkpt>
      <trkpt lat="45.99646" lon="4.19522">
        <ele>461</ele>
        <time>2026-03-19T14:49:22Z</time>
      </trkpt>
      <trkpt lat="45.99662" lon="4.19524">
        <ele>461</ele>
        <time>2026-03-19T14:49:26Z</time>
      </trkpt>
      <trkpt lat="45.99709" lon="4.19543">
        <ele>458</ele>
        <time>2026-03-19T14:49:37Z</time>
      </trkpt>
      <trkpt lat="45.99724" lon="4.1955">
        <ele>457</ele>
        <time>2026-03-19T14:49:41Z</time>
      </trkpt>
      <trkpt lat="45.99758" lon="4.19566">
        <ele>455</ele>
        <time>2026-03-19T14:49:49Z</time>
      </trkpt>
      <trkpt lat="45.99836" lon="4.1959">
        <ele>453</ele>
        <time>2026-03-19T14:50:08Z</time>
      </trkpt>
      <trkpt lat="45.999" lon="4.19612">
        <ele>457</ele>
        <time>2026-03-19T14:50:23Z</time>
      </trkpt>
      <trkpt lat="45.99918" lon="4.19622">
        <ele>458</ele>
        <time>2026-03-19T14:50:28Z</time>
      </trkpt>
      <trkpt lat="45.9993" lon="4.19633">
        <ele>457</ele>
        <time>2026-03-19T14:50:31Z</time>
      </trkpt>
      <trkpt lat="45.99975" lon="4.19703">
        <ele>454</ele>
        <time>2026-03-19T14:50:47Z</time>
      </trkpt>
      <trkpt lat="45.99993" lon="4.19719">
        <ele>453</ele>
        <time>2026-03-19T14:50:52Z</time>
      </trkpt>
      <trkpt lat="46.0003" lon="4.19756">
        <ele>447</ele>
        <time>2026-03-19T14:51:02Z</time>
      </trkpt>
      <trkpt lat="46.00039" lon="4.19761">
        <ele>446</ele>
        <time>2026-03-19T14:51:04Z</time>
      </trkpt>
      <trkpt lat="46.00048" lon="4.19766">
        <ele>446</ele>
        <time>2026-03-19T14:51:07Z</time>
      </trkpt>
      <trkpt lat="46.00056" lon="4.19774">
        <ele>445</ele>
        <time>2026-03-19T14:51:09Z</time>
      </trkpt>
      <trkpt lat="46.00063" lon="4.19785">
        <ele>444</ele>
        <time>2026-03-19T14:51:11Z</time>
      </trkpt>
      <trkpt lat="46.00092" lon="4.19846">
        <ele>444</ele>
        <time>2026-03-19T14:51:23Z</time>
      </trkpt>
      <trkpt lat="46.00105" lon="4.19878">
        <ele>443</ele>
        <time>2026-03-19T14:51:29Z</time>
      </trkpt>
      <trkpt lat="46.00118" lon="4.1992">
        <ele>443</ele>
        <time>2026-03-19T14:51:37Z</time>
      </trkpt>
      <trkpt lat="46.00125" lon="4.19952">
        <ele>443</ele>
        <time>2026-03-19T14:51:42Z</time>
      </trkpt>
      <trkpt lat="46.00134" lon="4.20006">
        <ele>444</ele>
        <time>2026-03-19T14:51:51Z</time>
      </trkpt>
      <trkpt lat="46.0014" lon="4.20032">
        <ele>445</ele>
        <time>2026-03-19T14:51:56Z</time>
      </trkpt>
      <trkpt lat="46.00146" lon="4.20048">
        <ele>446</ele>
        <time>2026-03-19T14:51:59Z</time>
      </trkpt>
      <trkpt lat="46.00181" lon="4.20117">
        <ele>449</ele>
        <time>2026-03-19T14:52:12Z</time>
      </trkpt>
      <trkpt lat="45.99983" lon="4.20209">
        <ele>432</ele>
        <time>2026-03-19T14:53:01Z</time>
      </trkpt>
      <trkpt lat="45.99992" lon="4.20239">
        <ele>432</ele>
        <time>2026-03-19T14:53:06Z</time>
      </trkpt>
      <trkpt lat="46.00013" lon="4.20265">
        <ele>433</ele>
        <time>2026-03-19T14:53:13Z</time>
      </trkpt>
      <trkpt lat="46.00051" lon="4.20293">
        <ele>438</ele>
        <time>2026-03-19T14:53:23Z</time>
      </trkpt>
      <trkpt lat="46.00074" lon="4.20305">
        <ele>442</ele>
        <time>2026-03-19T14:53:28Z</time>
      </trkpt>
      <trkpt lat="46.00092" lon="4.20323">
        <ele>443</ele>
        <time>2026-03-19T14:53:34Z</time>
      </trkpt>
      <trkpt lat="46.00122" lon="4.20381">
        <ele>439</ele>
        <time>2026-03-19T14:53:45Z</time>
      </trkpt>
      <trkpt lat="46.00148" lon="4.2046">
        <ele>436</ele>
        <time>2026-03-19T14:53:59Z</time>
      </trkpt>
      <trkpt lat="46.00147" lon="4.20478">
        <ele>436</ele>
        <time>2026-03-19T14:54:02Z</time>
      </trkpt>
      <trkpt lat="46.00136" lon="4.20489">
        <ele>436</ele>
        <time>2026-03-19T14:54:06Z</time>
      </trkpt>
      <trkpt lat="46.00099" lon="4.20482">
        <ele>437</ele>
        <time>2026-03-19T14:54:14Z</time>
      </trkpt>
      <trkpt lat="46.00048" lon="4.2051">
        <ele>440</ele>
        <time>2026-03-19T14:54:27Z</time>
      </trkpt>
      <trkpt lat="46.00007" lon="4.20554">
        <ele>445</ele>
        <time>2026-03-19T14:54:39Z</time>
      </trkpt>
      <trkpt lat="45.99978" lon="4.20574">
        <ele>445</ele>
        <time>2026-03-19T14:54:46Z</time>
      </trkpt>
      <trkpt lat="45.99907" lon="4.20577">
        <ele>443</ele>
        <time>2026-03-19T14:55:03Z</time>
      </trkpt>
      <trkpt lat="45.99906" lon="4.20577">
        <ele>443</ele>
        <time>2026-03-19T14:55:03Z</time>
      </trkpt>
      <trkpt lat="45.99889" lon="4.20563">
        <ele>442</ele>
        <time>2026-03-19T14:55:08Z</time>
      </trkpt>
      <trkpt lat="45.99882" lon="4.20559">
        <ele>442</ele>
        <time>2026-03-19T14:55:10Z</time>
      </trkpt>
      <trkpt lat="45.99831" lon="4.20542">
        <ele>440</ele>
        <time>2026-03-19T14:55:22Z</time>
      </trkpt>
      <trkpt lat="45.99829" lon="4.20542">
        <ele>440</ele>
        <time>2026-03-19T14:55:22Z</time>
      </trkpt>
      <trkpt lat="45.99831" lon="4.20542">
        <ele>440</ele>
        <time>2026-03-19T14:55:23Z</time>
      </trkpt>
      <trkpt lat="45.99822" lon="4.20442">
        <ele>434</ele>
        <time>2026-03-19T14:55:39Z</time>
      </trkpt>
      <trkpt lat="45.99821" lon="4.20415">
        <ele>433</ele>
        <time>2026-03-19T14:55:43Z</time>
      </trkpt>
      <trkpt lat="45.99822" lon="4.20407">
        <ele>432</ele>
        <time>2026-03-19T14:55:45Z</time>
      </trkpt>
      <trkpt lat="45.99825" lon="4.20405">
        <ele>432</ele>
        <time>2026-03-19T14:55:46Z</time>
      </trkpt>
      <trkpt lat="45.99827" lon="4.20404">
        <ele>432</ele>
        <time>2026-03-19T14:55:46Z</time>
      </trkpt>
      <trkpt lat="45.99868" lon="4.20409">
        <ele>433</ele>
        <time>2026-03-19T14:55:56Z</time>
      </trkpt>
      <trkpt lat="45.99875" lon="4.20408">
        <ele>433</ele>
        <time>2026-03-19T14:55:57Z</time>
      </trkpt>
      <trkpt lat="45.99875" lon="4.20407">
        <ele>433</ele>
        <time>2026-03-19T14:55:57Z</time>
      </trkpt>
      <trkpt lat="45.99876" lon="4.20404">
        <ele>432</ele>
        <time>2026-03-19T14:55:58Z</time>
      </trkpt>
      <trkpt lat="45.99871" lon="4.20384">
        <ele>430</ele>
        <time>2026-03-19T14:56:01Z</time>
      </trkpt>
      <trkpt lat="45.99844" lon="4.20297">
        <ele>424</ele>
        <time>2026-03-19T14:56:17Z</time>
      </trkpt>
      <trkpt lat="45.9984" lon="4.20291">
        <ele>424</ele>
        <time>2026-03-19T14:56:18Z</time>
      </trkpt>
      <trkpt lat="45.99838" lon="4.20287">
        <ele>423</ele>
        <time>2026-03-19T14:56:19Z</time>
      </trkpt>
      <trkpt lat="45.99818" lon="4.20269">
        <ele>422</ele>
        <time>2026-03-19T14:56:25Z</time>
      </trkpt>
      <trkpt lat="45.99776" lon="4.20244">
        <ele>420</ele>
        <time>2026-03-19T14:56:35Z</time>
      </trkpt>
      <trkpt lat="45.99765" lon="4.20238">
        <ele>420</ele>
        <time>2026-03-19T14:56:38Z</time>
      </trkpt>
      <trkpt lat="45.99743" lon="4.20219">
        <ele>419</ele>
        <time>2026-03-19T14:56:44Z</time>
      </trkpt>
      <trkpt lat="45.99722" lon="4.20199">
        <ele>417</ele>
        <time>2026-03-19T14:56:50Z</time>
      </trkpt>
      <trkpt lat="45.99692" lon="4.20176">
        <ele>414</ele>
        <time>2026-03-19T14:56:58Z</time>
      </trkpt>
      <trkpt lat="45.99684" lon="4.20174">
        <ele>414</ele>
        <time>2026-03-19T14:57:00Z</time>
      </trkpt>
      <trkpt lat="45.99671" lon="4.2017">
        <ele>413</ele>
        <time>2026-03-19T14:57:03Z</time>
      </trkpt>
      <trkpt lat="45.99659" lon="4.20162">
        <ele>412</ele>
        <time>2026-03-19T14:57:06Z</time>
      </trkpt>
      <trkpt lat="45.99643" lon="4.20155">
        <ele>411</ele>
        <time>2026-03-19T14:57:10Z</time>
      </trkpt>
      <trkpt lat="45.99626" lon="4.2015">
        <ele>410</ele>
        <time>2026-03-19T14:57:14Z</time>
      </trkpt>
      <trkpt lat="45.99611" lon="4.20146">
        <ele>409</ele>
        <time>2026-03-19T14:57:17Z</time>
      </trkpt>
      <trkpt lat="45.99604" lon="4.20142">
        <ele>408</ele>
        <time>2026-03-19T14:57:19Z</time>
      </trkpt>
      <trkpt lat="45.99605" lon="4.20136">
        <ele>408</ele>
        <time>2026-03-19T14:57:20Z</time>
      </trkpt>
      <trkpt lat="45.99628" lon="4.20111">
        <ele>408</ele>
        <time>2026-03-19T14:57:27Z</time>
      </trkpt>
      <trkpt lat="45.99628" lon="4.20105">
        <ele>408</ele>
        <time>2026-03-19T14:57:28Z</time>
      </trkpt>
      <trkpt lat="45.99626" lon="4.20101">
        <ele>407</ele>
        <time>2026-03-19T14:57:29Z</time>
      </trkpt>
      <trkpt lat="45.99607" lon="4.20092">
        <ele>405</ele>
        <time>2026-03-19T14:57:33Z</time>
      </trkpt>
      <trkpt lat="45.99574" lon="4.20084">
        <ele>400</ele>
        <time>2026-03-19T14:57:41Z</time>
      </trkpt>
      <trkpt lat="45.99525" lon="4.20069">
        <ele>396</ele>
        <time>2026-03-19T14:57:53Z</time>
      </trkpt>
      <trkpt lat="45.99509" lon="4.20056">
        <ele>395</ele>
        <time>2026-03-19T14:57:57Z</time>
      </trkpt>
      <trkpt lat="45.99468" lon="4.20031">
        <ele>391</ele>
        <time>2026-03-19T14:58:08Z</time>
      </trkpt>
      <trkpt lat="45.99446" lon="4.20008">
        <ele>388</ele>
        <time>2026-03-19T14:58:14Z</time>
      </trkpt>
      <trkpt lat="45.9944" lon="4.19987">
        <ele>390</ele>
        <time>2026-03-19T14:58:18Z</time>
      </trkpt>
      <trkpt lat="45.99453" lon="4.19956">
        <ele>398</ele>
        <time>2026-03-19T14:58:23Z</time>
      </trkpt>
      <trkpt lat="45.9949" lon="4.19888">
        <ele>420</ele>
        <time>2026-03-19T14:58:37Z</time>
      </trkpt>
      <trkpt lat="45.9949" lon="4.19884">
        <ele>421</ele>
        <time>2026-03-19T14:58:38Z</time>
      </trkpt>
      <trkpt lat="45.99489" lon="4.19878">
        <ele>422</ele>
        <time>2026-03-19T14:58:39Z</time>
      </trkpt>
      <trkpt lat="45.99488" lon="4.19875">
        <ele>423</ele>
        <time>2026-03-19T14:58:40Z</time>
      </trkpt>
      <trkpt lat="45.9945" lon="4.19822">
        <ele>426</ele>
        <time>2026-03-19T14:58:52Z</time>
      </trkpt>
      <trkpt lat="45.9937" lon="4.19763">
        <ele>423</ele>
        <time>2026-03-19T14:59:13Z</time>
      </trkpt>
      <trkpt lat="45.99357" lon="4.19749">
        <ele>424</ele>
        <time>2026-03-19T14:59:17Z</time>
      </trkpt>
      <trkpt lat="45.99345" lon="4.19744">
        <ele>423</ele>
        <time>2026-03-19T14:59:20Z</time>
      </trkpt>
      <trkpt lat="45.99327" lon="4.19752">
        <ele>418</ele>
        <time>2026-03-19T14:59:24Z</time>
      </trkpt>
      <trkpt lat="45.99321" lon="4.19752">
        <ele>417</ele>
        <time>2026-03-19T14:59:25Z</time>
      </trkpt>
      <trkpt lat="45.99316" lon="4.1975">
        <ele>417</ele>
        <time>2026-03-19T14:59:27Z</time>
      </trkpt>
      <trkpt lat="45.99309" lon="4.19728">
        <ele>419</ele>
        <time>2026-03-19T14:59:31Z</time>
      </trkpt>
      <trkpt lat="45.99298" lon="4.19713">
        <ele>420</ele>
        <time>2026-03-19T14:59:34Z</time>
      </trkpt>
      <trkpt lat="45.99275" lon="4.19683">
        <ele>421</ele>
        <time>2026-03-19T14:59:41Z</time>
      </trkpt>
      <trkpt lat="45.99243" lon="4.19638">
        <ele>419</ele>
        <time>2026-03-19T14:59:52Z</time>
      </trkpt>
      <trkpt lat="45.99238" lon="4.19633">
        <ele>419</ele>
        <time>2026-03-19T14:59:53Z</time>
      </trkpt>
      <trkpt lat="45.99231" lon="4.19632">
        <ele>417</ele>
        <time>2026-03-19T14:59:55Z</time>
      </trkpt>
      <trkpt lat="45.99222" lon="4.19633">
        <ele>416</ele>
        <time>2026-03-19T14:59:57Z</time>
      </trkpt>
      <trkpt lat="45.99186" lon="4.1962">
        <ele>409</ele>
        <time>2026-03-19T15:00:06Z</time>
      </trkpt>
      <trkpt lat="45.99198" lon="4.19643">
        <ele>410</ele>
        <time>2026-03-19T15:00:10Z</time>
      </trkpt>
      <trkpt lat="45.99186" lon="4.1962">
        <ele>409</ele>
        <time>2026-03-19T15:00:15Z</time>
      </trkpt>
      <trkpt lat="45.99165" lon="4.19611">
        <ele>406</ele>
        <time>2026-03-19T15:00:20Z</time>
      </trkpt>
      <trkpt lat="45.99149" lon="4.19608">
        <ele>404</ele>
        <time>2026-03-19T15:00:24Z</time>
      </trkpt>
      <trkpt lat="45.99139" lon="4.19608">
        <ele>402</ele>
        <time>2026-03-19T15:00:26Z</time>
      </trkpt>
      <trkpt lat="45.99126" lon="4.19609">
        <ele>400</ele>
        <time>2026-03-19T15:00:29Z</time>
      </trkpt>
      <trkpt lat="45.99115" lon="4.19614">
        <ele>397</ele>
        <time>2026-03-19T15:00:32Z</time>
      </trkpt>
      <trkpt lat="45.991" lon="4.19624">
        <ele>394</ele>
        <time>2026-03-19T15:00:36Z</time>
      </trkpt>
      <trkpt lat="45.99073" lon="4.19644">
        <ele>389</ele>
        <time>2026-03-19T15:00:43Z</time>
      </trkpt>
      <trkpt lat="45.99067" lon="4.19647">
        <ele>388</ele>
        <time>2026-03-19T15:00:44Z</time>
      </trkpt>
      <trkpt lat="45.99032" lon="4.19664">
        <ele>382</ele>
        <time>2026-03-19T15:00:53Z</time>
      </trkpt>
      <trkpt lat="45.99023" lon="4.19666">
        <ele>381</ele>
        <time>2026-03-19T15:00:55Z</time>
      </trkpt>
      <trkpt lat="45.99025" lon="4.19653">
        <ele>382</ele>
        <time>2026-03-19T15:00:57Z</time>
      </trkpt>
      <trkpt lat="45.9903" lon="4.19607">
        <ele>385</ele>
        <time>2026-03-19T15:01:05Z</time>
      </trkpt>
      <trkpt lat="45.99033" lon="4.19525">
        <ele>388</ele>
        <time>2026-03-19T15:01:18Z</time>
      </trkpt>
      <trkpt lat="45.99036" lon="4.19489">
        <ele>389</ele>
        <time>2026-03-19T15:01:24Z</time>
      </trkpt>
      <trkpt lat="45.99045" lon="4.19457">
        <ele>391</ele>
        <time>2026-03-19T15:01:30Z</time>
      </trkpt>
      <trkpt lat="45.99055" lon="4.19427">
        <ele>393</ele>
        <time>2026-03-19T15:01:35Z</time>
      </trkpt>
      <trkpt lat="45.99061" lon="4.19394">
        <ele>394</ele>
        <time>2026-03-19T15:01:41Z</time>
      </trkpt>
      <trkpt lat="45.99017" lon="4.19381">
        <ele>386</ele>
        <time>2026-03-19T15:01:51Z</time>
      </trkpt>
      <trkpt lat="45.98974" lon="4.1937">
        <ele>379</ele>
        <time>2026-03-19T15:02:01Z</time>
      </trkpt>
      <trkpt lat="45.98968" lon="4.19366">
        <ele>379</ele>
        <time>2026-03-19T15:02:03Z</time>
      </trkpt>
      <trkpt lat="45.98961" lon="4.19358">
        <ele>378</ele>
        <time>2026-03-19T15:02:05Z</time>
      </trkpt>
      <trkpt lat="45.98947" lon="4.19321">
        <ele>375</ele>
        <time>2026-03-19T15:02:12Z</time>
      </trkpt>
      <trkpt lat="45.98936" lon="4.19301">
        <ele>374</ele>
        <time>2026-03-19T15:02:16Z</time>
      </trkpt>
      <trkpt lat="45.98921" lon="4.19282">
        <ele>372</ele>
        <time>2026-03-19T15:02:21Z</time>
      </trkpt>
      <trkpt lat="45.98855" lon="4.19238">
        <ele>368</ele>
        <time>2026-03-19T15:02:38Z</time>
      </trkpt>
      <trkpt lat="45.98798" lon="4.19143">
        <ele>369</ele>
        <time>2026-03-19T15:02:58Z</time>
      </trkpt>
      <trkpt lat="45.98757" lon="4.19074">
        <ele>365</ele>
        <time>2026-03-19T15:03:13Z</time>
      </trkpt>
      <trkpt lat="45.98736" lon="4.18993">
        <ele>365</ele>
        <time>2026-03-19T15:03:27Z</time>
      </trkpt>
      <trkpt lat="45.98708" lon="4.18997">
        <ele>360</ele>
        <time>2026-03-19T15:03:33Z</time>
      </trkpt>
      <trkpt lat="45.98637" lon="4.19004">
        <ele>349</ele>
        <time>2026-03-19T15:03:50Z</time>
      </trkpt>
      <trkpt lat="45.98594" lon="4.19006">
        <ele>343</ele>
        <time>2026-03-19T15:04:00Z</time>
      </trkpt>
      <trkpt lat="45.98599" lon="4.19064">
        <ele>343</ele>
        <time>2026-03-19T15:04:09Z</time>
      </trkpt>
      <trkpt lat="45.98602" lon="4.19129">
        <ele>345</ele>
        <time>2026-03-19T15:04:20Z</time>
      </trkpt>
      <trkpt lat="45.98601" lon="4.19147">
        <ele>345</ele>
        <time>2026-03-19T15:04:23Z</time>
      </trkpt>
      <trkpt lat="45.98588" lon="4.19228">
        <ele>345</ele>
        <time>2026-03-19T15:04:36Z</time>
      </trkpt>
      <trkpt lat="45.9858" lon="4.1937">
        <ele>342</ele>
        <time>2026-03-19T15:05:00Z</time>
      </trkpt>
      <trkpt lat="45.9858" lon="4.19416">
        <ele>338</ele>
        <time>2026-03-19T15:05:07Z</time>
      </trkpt>
      <trkpt lat="45.98585" lon="4.1945">
        <ele>337</ele>
        <time>2026-03-19T15:05:13Z</time>
      </trkpt>
      <trkpt lat="45.986" lon="4.19526">
        <ele>333</ele>
        <time>2026-03-19T15:05:25Z</time>
      </trkpt>
      <trkpt lat="45.98596" lon="4.1953">
        <ele>332</ele>
        <time>2026-03-19T15:05:27Z</time>
      </trkpt>
      <trkpt lat="45.98585" lon="4.19538">
        <ele>331</ele>
        <time>2026-03-19T15:05:29Z</time>
      </trkpt>
      <trkpt lat="45.9857" lon="4.19544">
        <ele>329</ele>
        <time>2026-03-19T15:05:33Z</time>
      </trkpt>
      <trkpt lat="45.98568" lon="4.19511">
        <ele>330</ele>
        <time>2026-03-19T15:05:38Z</time>
      </trkpt>
      <trkpt lat="45.98565" lon="4.19483">
        <ele>331</ele>
        <time>2026-03-19T15:05:43Z</time>
      </trkpt>
      <trkpt lat="45.98551" lon="4.1939">
        <ele>335</ele>
        <time>2026-03-19T15:05:59Z</time>
      </trkpt>
      <trkpt lat="45.98546" lon="4.1939">
        <ele>334</ele>
        <time>2026-03-19T15:06:00Z</time>
      </trkpt>
      <trkpt lat="45.98542" lon="4.19389">
        <ele>334</ele>
        <time>2026-03-19T15:06:01Z</time>
      </trkpt>
      <trkpt lat="45.98534" lon="4.19381">
        <ele>333</ele>
        <time>2026-03-19T15:06:03Z</time>
      </trkpt>
      <trkpt lat="45.98511" lon="4.19362">
        <ele>332</ele>
        <time>2026-03-19T15:06:09Z</time>
      </trkpt>
      <trkpt lat="45.98469" lon="4.19337">
        <ele>330</ele>
        <time>2026-03-19T15:06:20Z</time>
      </trkpt>
      <trkpt lat="45.9846" lon="4.19329">
        <ele>330</ele>
        <time>2026-03-19T15:06:22Z</time>
      </trkpt>
      <trkpt lat="45.98452" lon="4.19325">
        <ele>329</ele>
        <time>2026-03-19T15:06:24Z</time>
      </trkpt>
      <trkpt lat="45.98421" lon="4.19321">
        <ele>325</ele>
        <time>2026-03-19T15:06:31Z</time>
      </trkpt>
      <trkpt lat="45.98398" lon="4.19322">
        <ele>322</ele>
        <time>2026-03-19T15:06:37Z</time>
      </trkpt>
      <trkpt lat="45.98395" lon="4.19324">
        <ele>322</ele>
        <time>2026-03-19T15:06:38Z</time>
      </trkpt>
      <trkpt lat="45.98393" lon="4.19327">
        <ele>321</ele>
        <time>2026-03-19T15:06:38Z</time>
      </trkpt>
      <trkpt lat="45.9839" lon="4.19335">
        <ele>321</ele>
        <time>2026-03-19T15:06:40Z</time>
      </trkpt>
      <trkpt lat="45.98387" lon="4.19348">
        <ele>320</ele>
        <time>2026-03-19T15:06:42Z</time>
      </trkpt>
      <trkpt lat="45.98381" lon="4.19375">
        <ele>318</ele>
        <time>2026-03-19T15:06:47Z</time>
      </trkpt>
      <trkpt lat="45.98381" lon="4.19419">
        <ele>316</ele>
        <time>2026-03-19T15:06:54Z</time>
      </trkpt>
      <trkpt lat="45.98384" lon="4.19441">
        <ele>315</ele>
        <time>2026-03-19T15:06:57Z</time>
      </trkpt>
      <trkpt lat="45.98393" lon="4.19482">
        <ele>315</ele>
        <time>2026-03-19T15:07:04Z</time>
      </trkpt>
      <trkpt lat="45.98394" lon="4.19512">
        <ele>315</ele>
        <time>2026-03-19T15:07:09Z</time>
      </trkpt>
      <trkpt lat="45.98374" lon="4.19582">
        <ele>316</ele>
        <time>2026-03-19T15:07:21Z</time>
      </trkpt>
      <trkpt lat="45.98361" lon="4.19616">
        <ele>317</ele>
        <time>2026-03-19T15:07:28Z</time>
      </trkpt>
      <trkpt lat="45.98347" lon="4.19632">
        <ele>317</ele>
        <time>2026-03-19T15:07:32Z</time>
      </trkpt>
      <trkpt lat="45.9828" lon="4.19683">
        <ele>321</ele>
        <time>2026-03-19T15:07:50Z</time>
      </trkpt>
      <trkpt lat="45.98279" lon="4.19688">
        <ele>321</ele>
        <time>2026-03-19T15:07:50Z</time>
      </trkpt>
      <trkpt lat="45.98278" lon="4.19694">
        <ele>321</ele>
        <time>2026-03-19T15:07:51Z</time>
      </trkpt>
      <trkpt lat="45.98223" lon="4.19829">
        <ele>324</ele>
        <time>2026-03-19T15:08:17Z</time>
      </trkpt>
      <trkpt lat="45.98208" lon="4.19869">
        <ele>324</ele>
        <time>2026-03-19T15:08:24Z</time>
      </trkpt>
      <trkpt lat="45.98198" lon="4.19924">
        <ele>322</ele>
        <time>2026-03-19T15:08:33Z</time>
      </trkpt>
      <trkpt lat="45.98193" lon="4.19931">
        <ele>323</ele>
        <time>2026-03-19T15:08:35Z</time>
      </trkpt>
      <trkpt lat="45.98176" lon="4.19952">
        <ele>324</ele>
        <time>2026-03-19T15:08:40Z</time>
      </trkpt>
      <trkpt lat="45.98177" lon="4.19964">
        <ele>324</ele>
        <time>2026-03-19T15:08:42Z</time>
      </trkpt>
      <trkpt lat="45.98181" lon="4.19976">
        <ele>323</ele>
        <time>2026-03-19T15:08:44Z</time>
      </trkpt>
      <trkpt lat="45.98192" lon="4.19997">
        <ele>322</ele>
        <time>2026-03-19T15:08:49Z</time>
      </trkpt>
      <trkpt lat="45.98213" lon="4.20031">
        <ele>321</ele>
        <time>2026-03-19T15:08:56Z</time>
      </trkpt>
      <trkpt lat="45.98218" lon="4.20044">
        <ele>321</ele>
        <time>2026-03-19T15:08:59Z</time>
      </trkpt>
      <trkpt lat="45.98222" lon="4.2007">
        <ele>322</ele>
        <time>2026-03-19T15:09:03Z</time>
      </trkpt>
      <trkpt lat="45.98227" lon="4.20089">
        <ele>322</ele>
        <time>2026-03-19T15:09:06Z</time>
      </trkpt>
      <trkpt lat="45.98236" lon="4.2011">
        <ele>322</ele>
        <time>2026-03-19T15:09:10Z</time>
      </trkpt>
      <trkpt lat="45.98251" lon="4.2013">
        <ele>320</ele>
        <time>2026-03-19T15:09:15Z</time>
      </trkpt>
      <trkpt lat="45.98304" lon="4.20195">
        <ele>323</ele>
        <time>2026-03-19T15:09:31Z</time>
      </trkpt>
      <trkpt lat="45.98438" lon="4.20317">
        <ele>322</ele>
        <time>2026-03-19T15:10:08Z</time>
      </trkpt>
      <trkpt lat="45.98495" lon="4.20374">
        <ele>321</ele>
        <time>2026-03-19T15:10:24Z</time>
      </trkpt>
      <trkpt lat="45.9853" lon="4.20406">
        <ele>321</ele>
        <time>2026-03-19T15:10:34Z</time>
      </trkpt>
      <trkpt lat="45.98581" lon="4.20465">
        <ele>320</ele>
        <time>2026-03-19T15:10:49Z</time>
      </trkpt>
      <trkpt lat="45.98611" lon="4.20523">
        <ele>323</ele>
        <time>2026-03-19T15:11:01Z</time>
      </trkpt>
      <trkpt lat="45.98626" lon="4.20551">
        <ele>323</ele>
        <time>2026-03-19T15:11:07Z</time>
      </trkpt>
      <trkpt lat="45.98657" lon="4.20593">
        <ele>323</ele>
        <time>2026-03-19T15:11:17Z</time>
      </trkpt>
      <trkpt lat="45.98664" lon="4.20611">
        <ele>324</ele>
        <time>2026-03-19T15:11:20Z</time>
      </trkpt>
      <trkpt lat="45.9867" lon="4.20633">
        <ele>325</ele>
        <time>2026-03-19T15:11:24Z</time>
      </trkpt>
      <trkpt lat="45.98675" lon="4.20662">
        <ele>326</ele>
        <time>2026-03-19T15:11:29Z</time>
      </trkpt>
      <trkpt lat="45.98677" lon="4.20681">
        <ele>326</ele>
        <time>2026-03-19T15:11:32Z</time>
      </trkpt>
      <trkpt lat="45.98657" lon="4.20722">
        <ele>327</ele>
        <time>2026-03-19T15:11:40Z</time>
      </trkpt>
      <trkpt lat="45.9865" lon="4.2073">
        <ele>329</ele>
        <time>2026-03-19T15:11:42Z</time>
      </trkpt>
      <trkpt lat="45.98641" lon="4.20732">
        <ele>330</ele>
        <time>2026-03-19T15:11:44Z</time>
      </trkpt>
      <trkpt lat="45.98631" lon="4.20729">
        <ele>332</ele>
        <time>2026-03-19T15:11:47Z</time>
      </trkpt>
      <trkpt lat="45.98617" lon="4.20721">
        <ele>334</ele>
        <time>2026-03-19T15:11:50Z</time>
      </trkpt>
      <trkpt lat="45.98568" lon="4.20668">
        <ele>338</ele>
        <time>2026-03-19T15:12:05Z</time>
      </trkpt>
      <trkpt lat="45.98541" lon="4.20648">
        <ele>339</ele>
        <time>2026-03-19T15:12:12Z</time>
      </trkpt>
      <trkpt lat="45.98517" lon="4.20633">
        <ele>340</ele>
        <time>2026-03-19T15:12:18Z</time>
      </trkpt>
      <trkpt lat="45.98484" lon="4.20616">
        <ele>342</ele>
        <time>2026-03-19T15:12:26Z</time>
      </trkpt>
      <trkpt lat="45.98477" lon="4.20611">
        <ele>342</ele>
        <time>2026-03-19T15:12:28Z</time>
      </trkpt>
      <trkpt lat="45.98457" lon="4.20595">
        <ele>342</ele>
        <time>2026-03-19T15:12:33Z</time>
      </trkpt>
      <trkpt lat="45.98428" lon="4.20554">
        <ele>341</ele>
        <time>2026-03-19T15:12:43Z</time>
      </trkpt>
      <trkpt lat="45.98384" lon="4.20486">
        <ele>342</ele>
        <time>2026-03-19T15:12:58Z</time>
      </trkpt>
      <trkpt lat="45.98372" lon="4.2047">
        <ele>343</ele>
        <time>2026-03-19T15:13:01Z</time>
      </trkpt>
      <trkpt lat="45.98346" lon="4.20453">
        <ele>347</ele>
        <time>2026-03-19T15:13:08Z</time>
      </trkpt>
      <trkpt lat="45.98318" lon="4.20444">
        <ele>349</ele>
        <time>2026-03-19T15:13:15Z</time>
      </trkpt>
      <trkpt lat="45.98299" lon="4.2044">
        <ele>348</ele>
        <time>2026-03-19T15:13:19Z</time>
      </trkpt>
      <trkpt lat="45.98263" lon="4.20451">
        <ele>348</ele>
        <time>2026-03-19T15:13:28Z</time>
      </trkpt>
      <trkpt lat="45.98246" lon="4.20464">
        <ele>349</ele>
        <time>2026-03-19T15:13:32Z</time>
      </trkpt>
      <trkpt lat="45.98224" lon="4.20492">
        <ele>351</ele>
        <time>2026-03-19T15:13:39Z</time>
      </trkpt>
      <trkpt lat="45.98214" lon="4.20498">
        <ele>351</ele>
        <time>2026-03-19T15:13:42Z</time>
      </trkpt>
      <trkpt lat="45.98158" lon="4.20504">
        <ele>353</ele>
        <time>2026-03-19T15:13:55Z</time>
      </trkpt>
      <trkpt lat="45.98109" lon="4.20546">
        <ele>360</ele>
        <time>2026-03-19T15:14:08Z</time>
      </trkpt>
      <trkpt lat="45.98077" lon="4.2052">
        <ele>361</ele>
        <time>2026-03-19T15:14:17Z</time>
      </trkpt>
      <trkpt lat="45.98077" lon="4.2047">
        <ele>362</ele>
        <time>2026-03-19T15:14:25Z</time>
      </trkpt>
      <trkpt lat="45.98075" lon="4.20418">
        <ele>363</ele>
        <time>2026-03-19T15:14:33Z</time>
      </trkpt>
      <trkpt lat="45.98077" lon="4.20356">
        <ele>368</ele>
        <time>2026-03-19T15:14:43Z</time>
      </trkpt>
      <trkpt lat="45.98096" lon="4.20283">
        <ele>370</ele>
        <time>2026-03-19T15:14:56Z</time>
      </trkpt>
      <trkpt lat="45.98085" lon="4.20191">
        <ele>368</ele>
        <time>2026-03-19T15:15:11Z</time>
      </trkpt>
      <trkpt lat="45.98035" lon="4.20135">
        <ele>368</ele>
        <time>2026-03-19T15:15:26Z</time>
      </trkpt>
      <trkpt lat="45.97958" lon="4.20108">
        <ele>374</ele>
        <time>2026-03-19T15:15:45Z</time>
      </trkpt>
      <trkpt lat="45.97758" lon="4.20021">
        <ele>380</ele>
        <time>2026-03-19T15:16:33Z</time>
      </trkpt>
      <trkpt lat="45.97688" lon="4.1999">
        <ele>382</ele>
        <time>2026-03-19T15:16:50Z</time>
      </trkpt>
      <trkpt lat="45.97633" lon="4.19993">
        <ele>385</ele>
        <time>2026-03-19T15:17:03Z</time>
      </trkpt>
      <trkpt lat="45.97585" lon="4.20049">
        <ele>391</ele>
        <time>2026-03-19T15:17:18Z</time>
      </trkpt>
      <trkpt lat="45.97534" lon="4.20101">
        <ele>396</ele>
        <time>2026-03-19T15:17:32Z</time>
      </trkpt>
      <trkpt lat="45.97474" lon="4.20087">
        <ele>397</ele>
        <time>2026-03-19T15:17:47Z</time>
      </trkpt>
      <trkpt lat="45.97404" lon="4.20056">
        <ele>397</ele>
        <time>2026-03-19T15:18:04Z</time>
      </trkpt>
      <trkpt lat="45.97315" lon="4.1999">
        <ele>398</ele>
        <time>2026-03-19T15:18:27Z</time>
      </trkpt>
      <trkpt lat="45.97291" lon="4.19902">
        <ele>399</ele>
        <time>2026-03-19T15:18:42Z</time>
      </trkpt>
      <trkpt lat="45.9728" lon="4.19855">
        <ele>400</ele>
        <time>2026-03-19T15:18:50Z</time>
      </trkpt>
      <trkpt lat="45.97276" lon="4.19817">
        <ele>400</ele>
        <time>2026-03-19T15:18:57Z</time>
      </trkpt>
      <trkpt lat="45.97277" lon="4.1979">
        <ele>400</ele>
        <time>2026-03-19T15:19:01Z</time>
      </trkpt>
      <trkpt lat="45.97284" lon="4.19775">
        <ele>400</ele>
        <time>2026-03-19T15:19:04Z</time>
      </trkpt>
      <trkpt lat="45.97301" lon="4.19741">
        <ele>401</ele>
        <time>2026-03-19T15:19:11Z</time>
      </trkpt>
      <trkpt lat="45.97331" lon="4.19677">
        <ele>404</ele>
        <time>2026-03-19T15:19:23Z</time>
      </trkpt>
      <trkpt lat="45.97348" lon="4.19622">
        <ele>405</ele>
        <time>2026-03-19T15:19:33Z</time>
      </trkpt>
      <trkpt lat="45.97356" lon="4.19586">
        <ele>406</ele>
        <time>2026-03-19T15:19:39Z</time>
      </trkpt>
      <trkpt lat="45.97355" lon="4.1956">
        <ele>406</ele>
        <time>2026-03-19T15:19:43Z</time>
      </trkpt>
      <trkpt lat="45.97352" lon="4.19544">
        <ele>407</ele>
        <time>2026-03-19T15:19:46Z</time>
      </trkpt>
      <trkpt lat="45.97342" lon="4.19521">
        <ele>407</ele>
        <time>2026-03-19T15:19:51Z</time>
      </trkpt>
      <trkpt lat="45.97325" lon="4.19498">
        <ele>408</ele>
        <time>2026-03-19T15:19:56Z</time>
      </trkpt>
      <trkpt lat="45.97309" lon="4.19477">
        <ele>408</ele>
        <time>2026-03-19T15:20:01Z</time>
      </trkpt>
      <trkpt lat="45.97287" lon="4.1946">
        <ele>409</ele>
        <time>2026-03-19T15:20:07Z</time>
      </trkpt>
      <trkpt lat="45.97271" lon="4.19446">
        <ele>410</ele>
        <time>2026-03-19T15:20:11Z</time>
      </trkpt>
      <trkpt lat="45.97238" lon="4.19406">
        <ele>412</ele>
        <time>2026-03-19T15:20:21Z</time>
      </trkpt>
      <trkpt lat="45.97226" lon="4.19387">
        <ele>411</ele>
        <time>2026-03-19T15:20:25Z</time>
      </trkpt>
      <trkpt lat="45.97223" lon="4.1936">
        <ele>411</ele>
        <time>2026-03-19T15:20:30Z</time>
      </trkpt>
      <trkpt lat="45.97182" lon="4.19338">
        <ele>412</ele>
        <time>2026-03-19T15:20:40Z</time>
      </trkpt>
      <trkpt lat="45.97128" lon="4.19297">
        <ele>413</ele>
        <time>2026-03-19T15:20:54Z</time>
      </trkpt>
      <trkpt lat="45.97031" lon="4.19243">
        <ele>413</ele>
        <time>2026-03-19T15:21:19Z</time>
      </trkpt>
      <trkpt lat="45.97021" lon="4.19243">
        <ele>413</ele>
        <time>2026-03-19T15:21:21Z</time>
      </trkpt>
      <trkpt lat="45.97008" lon="4.19246">
        <ele>414</ele>
        <time>2026-03-19T15:21:24Z</time>
      </trkpt>
      <trkpt lat="45.96986" lon="4.19253">
        <ele>414</ele>
        <time>2026-03-19T15:21:29Z</time>
      </trkpt>
      <trkpt lat="45.96972" lon="4.19256">
        <ele>413</ele>
        <time>2026-03-19T15:21:33Z</time>
      </trkpt>
      <trkpt lat="45.96963" lon="4.19255">
        <ele>413</ele>
        <time>2026-03-19T15:21:35Z</time>
      </trkpt>
      <trkpt lat="45.96951" lon="4.19249">
        <ele>413</ele>
        <time>2026-03-19T15:21:38Z</time>
      </trkpt>
      <trkpt lat="45.96931" lon="4.19231">
        <ele>413</ele>
        <time>2026-03-19T15:21:43Z</time>
      </trkpt>
      <trkpt lat="45.96916" lon="4.19221">
        <ele>413</ele>
        <time>2026-03-19T15:21:47Z</time>
      </trkpt>
      <trkpt lat="45.96861" lon="4.19176">
        <ele>412</ele>
        <time>2026-03-19T15:22:02Z</time>
      </trkpt>
      <trkpt lat="45.96853" lon="4.19171">
        <ele>412</ele>
        <time>2026-03-19T15:22:04Z</time>
      </trkpt>
      <trkpt lat="45.96832" lon="4.19167">
        <ele>412</ele>
        <time>2026-03-19T15:22:09Z</time>
      </trkpt>
      <trkpt lat="45.96815" lon="4.1916">
        <ele>410</ele>
        <time>2026-03-19T15:22:13Z</time>
      </trkpt>
      <trkpt lat="45.96792" lon="4.1916">
        <ele>409</ele>
        <time>2026-03-19T15:22:18Z</time>
      </trkpt>
      <trkpt lat="45.96761" lon="4.19157">
        <ele>407</ele>
        <time>2026-03-19T15:22:26Z</time>
      </trkpt>
      <trkpt lat="45.96605" lon="4.19215">
        <ele>387</ele>
        <time>2026-03-19T15:23:03Z</time>
      </trkpt>
      <trkpt lat="45.96531" lon="4.19255">
        <ele>377</ele>
        <time>2026-03-19T15:23:22Z</time>
      </trkpt>
      <trkpt lat="45.96503" lon="4.19261">
        <ele>374</ele>
        <time>2026-03-19T15:23:28Z</time>
      </trkpt>
      <trkpt lat="45.96451" lon="4.19254">
        <ele>370</ele>
        <time>2026-03-19T15:23:40Z</time>
      </trkpt>
      <trkpt lat="45.96395" lon="4.1927">
        <ele>364</ele>
        <time>2026-03-19T15:23:54Z</time>
      </trkpt>
      <trkpt lat="45.96356" lon="4.19299">
        <ele>358</ele>
        <time>2026-03-19T15:24:04Z</time>
      </trkpt>
      <trkpt lat="45.96339" lon="4.19314">
        <ele>355</ele>
        <time>2026-03-19T15:24:09Z</time>
      </trkpt>
      <trkpt lat="45.9633" lon="4.19307">
        <ele>354</ele>
        <time>2026-03-19T15:24:11Z</time>
      </trkpt>
      <trkpt lat="45.96312" lon="4.19318">
        <ele>350</ele>
        <time>2026-03-19T15:24:16Z</time>
      </trkpt>
      <trkpt lat="45.96296" lon="4.19321">
        <ele>348</ele>
        <time>2026-03-19T15:24:19Z</time>
      </trkpt>
      <trkpt lat="45.96262" lon="4.19324">
        <ele>342</ele>
        <time>2026-03-19T15:24:27Z</time>
      </trkpt>
      <trkpt lat="45.96259" lon="4.1934">
        <ele>342</ele>
        <time>2026-03-19T15:24:30Z</time>
      </trkpt>
      <trkpt lat="45.96212" lon="4.19353">
        <ele>341</ele>
        <time>2026-03-19T15:24:41Z</time>
      </trkpt>
      <trkpt lat="45.96171" lon="4.19356">
        <ele>342</ele>
        <time>2026-03-19T15:24:51Z</time>
      </trkpt>
      <trkpt lat="45.96164" lon="4.19367">
        <ele>344</ele>
        <time>2026-03-19T15:24:53Z</time>
      </trkpt>
      <trkpt lat="45.96151" lon="4.19368">
        <ele>346</ele>
        <time>2026-03-19T15:24:56Z</time>
      </trkpt>
      <trkpt lat="45.96149" lon="4.19347">
        <ele>343</ele>
        <time>2026-03-19T15:25:00Z</time>
      </trkpt>
      <trkpt lat="45.96131" lon="4.19329">
        <ele>342</ele>
        <time>2026-03-19T15:25:05Z</time>
      </trkpt>
      <trkpt lat="45.96113" lon="4.19346">
        <ele>347</ele>
        <time>2026-03-19T15:25:10Z</time>
      </trkpt>
      <trkpt lat="45.96105" lon="4.19329">
        <ele>345</ele>
        <time>2026-03-19T15:25:13Z</time>
      </trkpt>
      <trkpt lat="45.96126" lon="4.19221">
        <ele>348</ele>
        <time>2026-03-19T15:25:31Z</time>
      </trkpt>
      <trkpt lat="45.96131" lon="4.19199">
        <ele>349</ele>
        <time>2026-03-19T15:25:35Z</time>
      </trkpt>
      <trkpt lat="45.9613" lon="4.1919">
        <ele>351</ele>
        <time>2026-03-19T15:25:37Z</time>
      </trkpt>
      <trkpt lat="45.96127" lon="4.19174">
        <ele>353</ele>
        <time>2026-03-19T15:25:39Z</time>
      </trkpt>
      <trkpt lat="45.96122" lon="4.19154">
        <ele>355</ele>
        <time>2026-03-19T15:25:43Z</time>
      </trkpt>
      <trkpt lat="45.96115" lon="4.19132">
        <ele>356</ele>
        <time>2026-03-19T15:25:47Z</time>
      </trkpt>
      <trkpt lat="45.96104" lon="4.19106">
        <ele>359</ele>
        <time>2026-03-19T15:25:52Z</time>
      </trkpt>
      <trkpt lat="45.9607" lon="4.19031">
        <ele>366</ele>
        <time>2026-03-19T15:26:06Z</time>
      </trkpt>
      <trkpt lat="45.96066" lon="4.19014">
        <ele>367</ele>
        <time>2026-03-19T15:26:09Z</time>
      </trkpt>
      <trkpt lat="45.96064" lon="4.19001">
        <ele>368</ele>
        <time>2026-03-19T15:26:11Z</time>
      </trkpt>
      <trkpt lat="45.96066" lon="4.18977">
        <ele>370</ele>
        <time>2026-03-19T15:26:15Z</time>
      </trkpt>
      <trkpt lat="45.96069" lon="4.18963">
        <ele>370</ele>
        <time>2026-03-19T15:26:18Z</time>
      </trkpt>
      <trkpt lat="45.96075" lon="4.18939">
        <ele>372</ele>
        <time>2026-03-19T15:26:22Z</time>
      </trkpt>
      <trkpt lat="45.96082" lon="4.18899">
        <ele>375</ele>
        <time>2026-03-19T15:26:28Z</time>
      </trkpt>
      <trkpt lat="45.96084" lon="4.18881">
        <ele>376</ele>
        <time>2026-03-19T15:26:31Z</time>
      </trkpt>
      <trkpt lat="45.96085" lon="4.18858">
        <ele>378</ele>
        <time>2026-03-19T15:26:35Z</time>
      </trkpt>
      <trkpt lat="45.96085" lon="4.18821">
        <ele>380</ele>
        <time>2026-03-19T15:26:41Z</time>
      </trkpt>
      <trkpt lat="45.96081" lon="4.18818">
        <ele>381</ele>
        <time>2026-03-19T15:26:42Z</time>
      </trkpt>
      <trkpt lat="45.96059" lon="4.18777">
        <ele>384</ele>
        <time>2026-03-19T15:26:51Z</time>
      </trkpt>
      <trkpt lat="45.96049" lon="4.18753">
        <ele>386</ele>
        <time>2026-03-19T15:26:55Z</time>
      </trkpt>
      <trkpt lat="45.96043" lon="4.18732">
        <ele>387</ele>
        <time>2026-03-19T15:26:59Z</time>
      </trkpt>
      <trkpt lat="45.96031" lon="4.18625">
        <ele>392</ele>
        <time>2026-03-19T15:27:16Z</time>
      </trkpt>
      <trkpt lat="45.96029" lon="4.18581">
        <ele>393</ele>
        <time>2026-03-19T15:27:24Z</time>
      </trkpt>
      <trkpt lat="45.96017" lon="4.18498">
        <ele>395</ele>
        <time>2026-03-19T15:27:37Z</time>
      </trkpt>
      <trkpt lat="45.96012" lon="4.18489">
        <ele>395</ele>
        <time>2026-03-19T15:27:39Z</time>
      </trkpt>
      <trkpt lat="45.96004" lon="4.18483">
        <ele>395</ele>
        <time>2026-03-19T15:27:41Z</time>
      </trkpt>
      <trkpt lat="45.9601" lon="4.18466">
        <ele>394</ele>
        <time>2026-03-19T15:27:44Z</time>
      </trkpt>
      <trkpt lat="45.96022" lon="4.18438">
        <ele>394</ele>
        <time>2026-03-19T15:27:50Z</time>
      </trkpt>
      <trkpt lat="45.9601" lon="4.18438">
        <ele>394</ele>
        <time>2026-03-19T15:27:53Z</time>
      </trkpt>
      <trkpt lat="45.96003" lon="4.18442">
        <ele>394</ele>
        <time>2026-03-19T15:27:54Z</time>
      </trkpt>
      <trkpt lat="45.95973" lon="4.18471">
        <ele>393</ele>
        <time>2026-03-19T15:28:03Z</time>
      </trkpt>
      <trkpt lat="45.95962" lon="4.18484">
        <ele>392</ele>
        <time>2026-03-19T15:28:06Z</time>
      </trkpt>
      <trkpt lat="45.95952" lon="4.18503">
        <ele>391</ele>
        <time>2026-03-19T15:28:10Z</time>
      </trkpt>
      <trkpt lat="45.95936" lon="4.18539">
        <ele>390</ele>
        <time>2026-03-19T15:28:17Z</time>
      </trkpt>
      <trkpt lat="45.95931" lon="4.18548">
        <ele>389</ele>
        <time>2026-03-19T15:28:19Z</time>
      </trkpt>
      <trkpt lat="45.95924" lon="4.18557">
        <ele>388</ele>
        <time>2026-03-19T15:28:21Z</time>
      </trkpt>
      <trkpt lat="45.95914" lon="4.18563">
        <ele>387</ele>
        <time>2026-03-19T15:28:24Z</time>
      </trkpt>
      <trkpt lat="45.95905" lon="4.18564">
        <ele>385</ele>
        <time>2026-03-19T15:28:26Z</time>
      </trkpt>
      <trkpt lat="45.95878" lon="4.18573">
        <ele>378</ele>
        <time>2026-03-19T15:28:32Z</time>
      </trkpt>
      <trkpt lat="45.9587" lon="4.18577">
        <ele>376</ele>
        <time>2026-03-19T15:28:34Z</time>
      </trkpt>
      <trkpt lat="45.95859" lon="4.18586">
        <ele>374</ele>
        <time>2026-03-19T15:28:37Z</time>
      </trkpt>
      <trkpt lat="45.9583" lon="4.18617">
        <ele>372</ele>
        <time>2026-03-19T15:28:45Z</time>
      </trkpt>
      <trkpt lat="45.95815" lon="4.18633">
        <ele>371</ele>
        <time>2026-03-19T15:28:50Z</time>
      </trkpt>
      <trkpt lat="45.95776" lon="4.1866">
        <ele>365</ele>
        <time>2026-03-19T15:29:00Z</time>
      </trkpt>
      <trkpt lat="45.95754" lon="4.18677">
        <ele>363</ele>
        <time>2026-03-19T15:29:06Z</time>
      </trkpt>
      <trkpt lat="45.95747" lon="4.18676">
        <ele>361</ele>
        <time>2026-03-19T15:29:07Z</time>
      </trkpt>
      <trkpt lat="45.95734" lon="4.18686">
        <ele>362</ele>
        <time>2026-03-19T15:29:11Z</time>
      </trkpt>
      <trkpt lat="45.95703" lon="4.18695">
        <ele>361</ele>
        <time>2026-03-19T15:29:18Z</time>
      </trkpt>
      <trkpt lat="45.95655" lon="4.187">
        <ele>358</ele>
        <time>2026-03-19T15:29:29Z</time>
      </trkpt>
      <trkpt lat="45.95639" lon="4.18705">
        <ele>358</ele>
        <time>2026-03-19T15:29:33Z</time>
      </trkpt>
      <trkpt lat="45.95576" lon="4.18786">
        <ele>363</ele>
        <time>2026-03-19T15:29:53Z</time>
      </trkpt>
      <trkpt lat="45.95519" lon="4.18838">
        <ele>363</ele>
        <time>2026-03-19T15:30:09Z</time>
      </trkpt>
      <trkpt lat="45.9546" lon="4.18878">
        <ele>363</ele>
        <time>2026-03-19T15:30:24Z</time>
      </trkpt>
      <trkpt lat="45.95399" lon="4.18911">
        <ele>360</ele>
        <time>2026-03-19T15:30:39Z</time>
      </trkpt>
      <trkpt lat="45.953" lon="4.18959">
        <ele>365</ele>
        <time>2026-03-19T15:31:04Z</time>
      </trkpt>
      <trkpt lat="45.95277" lon="4.18976">
        <ele>365</ele>
        <time>2026-03-19T15:31:10Z</time>
      </trkpt>
      <trkpt lat="45.9512" lon="4.1909">
        <ele>370</ele>
        <time>2026-03-19T15:31:51Z</time>
      </trkpt>
      <trkpt lat="45.95064" lon="4.19118">
        <ele>370</ele>
        <time>2026-03-19T15:32:05Z</time>
      </trkpt>
      <trkpt lat="45.95027" lon="4.19146">
        <ele>369</ele>
        <time>2026-03-19T15:32:14Z</time>
      </trkpt>
      <trkpt lat="45.9494" lon="4.19219">
        <ele>368</ele>
        <time>2026-03-19T15:32:38Z</time>
      </trkpt>
      <trkpt lat="45.94839" lon="4.19257">
        <ele>364</ele>
        <time>2026-03-19T15:33:02Z</time>
      </trkpt>
      <trkpt lat="45.94719" lon="4.19299">
        <ele>370</ele>
        <time>2026-03-19T15:33:31Z</time>
      </trkpt>
      <trkpt lat="45.94666" lon="4.19331">
        <ele>373</ele>
        <time>2026-03-19T15:33:45Z</time>
      </trkpt>
      <trkpt lat="45.94646" lon="4.19347">
        <ele>375</ele>
        <time>2026-03-19T15:33:50Z</time>
      </trkpt>
      <trkpt lat="45.94625" lon="4.19371">
        <ele>377</ele>
        <time>2026-03-19T15:33:56Z</time>
      </trkpt>
      <trkpt lat="45.94613" lon="4.19385">
        <ele>378</ele>
        <time>2026-03-19T15:34:00Z</time>
      </trkpt>
      <trkpt lat="45.94603" lon="4.19413">
        <ele>378</ele>
        <time>2026-03-19T15:34:05Z</time>
      </trkpt>
      <trkpt lat="45.94596" lon="4.19439">
        <ele>379</ele>
        <time>2026-03-19T15:34:09Z</time>
      </trkpt>
      <trkpt lat="45.94566" lon="4.19568">
        <ele>380</ele>
        <time>2026-03-19T15:34:31Z</time>
      </trkpt>
      <trkpt lat="45.94552" lon="4.19608">
        <ele>378</ele>
        <time>2026-03-19T15:34:39Z</time>
      </trkpt>
      <trkpt lat="45.94536" lon="4.1964">
        <ele>376</ele>
        <time>2026-03-19T15:34:45Z</time>
      </trkpt>
      <trkpt lat="45.94521" lon="4.19661">
        <ele>374</ele>
        <time>2026-03-19T15:34:50Z</time>
      </trkpt>
      <trkpt lat="45.945" lon="4.19685">
        <ele>374</ele>
        <time>2026-03-19T15:34:56Z</time>
      </trkpt>
      <trkpt lat="45.94466" lon="4.19713">
        <ele>375</ele>
        <time>2026-03-19T15:35:05Z</time>
      </trkpt>
      <trkpt lat="45.9444" lon="4.19727">
        <ele>375</ele>
        <time>2026-03-19T15:35:12Z</time>
      </trkpt>
      <trkpt lat="45.94417" lon="4.19734">
        <ele>374</ele>
        <time>2026-03-19T15:35:17Z</time>
      </trkpt>
      <trkpt lat="45.94384" lon="4.19739">
        <ele>374</ele>
        <time>2026-03-19T15:35:25Z</time>
      </trkpt>
      <trkpt lat="45.94335" lon="4.1974">
        <ele>372</ele>
        <time>2026-03-19T15:35:37Z</time>
      </trkpt>
      <trkpt lat="45.94298" lon="4.19749">
        <ele>373</ele>
        <time>2026-03-19T15:35:45Z</time>
      </trkpt>
      <trkpt lat="45.94278" lon="4.19757">
        <ele>373</ele>
        <time>2026-03-19T15:35:50Z</time>
      </trkpt>
      <trkpt lat="45.94248" lon="4.19772">
        <ele>374</ele>
        <time>2026-03-19T15:35:58Z</time>
      </trkpt>
      <trkpt lat="45.94163" lon="4.19831">
        <ele>375</ele>
        <time>2026-03-19T15:36:20Z</time>
      </trkpt>
      <trkpt lat="45.94145" lon="4.19846">
        <ele>376</ele>
        <time>2026-03-19T15:36:25Z</time>
      </trkpt>
      <trkpt lat="45.94145" lon="4.19856">
        <ele>377</ele>
        <time>2026-03-19T15:36:26Z</time>
      </trkpt>
      <trkpt lat="45.94141" lon="4.19871">
        <ele>378</ele>
        <time>2026-03-19T15:36:29Z</time>
      </trkpt>
      <trkpt lat="45.94112" lon="4.19918">
        <ele>378</ele>
        <time>2026-03-19T15:36:39Z</time>
      </trkpt>
      <trkpt lat="45.94096" lon="4.19938">
        <ele>377</ele>
        <time>2026-03-19T15:36:44Z</time>
      </trkpt>
      <trkpt lat="45.94033" lon="4.19982">
        <ele>375</ele>
        <time>2026-03-19T15:37:00Z</time>
      </trkpt>
      <trkpt lat="45.93997" lon="4.20021">
        <ele>374</ele>
        <time>2026-03-19T15:37:11Z</time>
      </trkpt>
      <trkpt lat="45.93942" lon="4.20061">
        <ele>378</ele>
        <time>2026-03-19T15:37:25Z</time>
      </trkpt>
      <trkpt lat="45.93931" lon="4.2009">
        <ele>377</ele>
        <time>2026-03-19T15:37:31Z</time>
      </trkpt>
      <trkpt lat="45.93934" lon="4.20163">
        <ele>376</ele>
        <time>2026-03-19T15:37:42Z</time>
      </trkpt>
      <trkpt lat="45.93981" lon="4.20156">
        <ele>377</ele>
        <time>2026-03-19T15:37:53Z</time>
      </trkpt>
      <trkpt lat="45.93985" lon="4.20207">
        <ele>379</ele>
        <time>2026-03-19T15:38:02Z</time>
      </trkpt>
      <trkpt lat="45.93915" lon="4.20224">
        <ele>382</ele>
        <time>2026-03-19T15:38:18Z</time>
      </trkpt>
      <trkpt lat="45.93914" lon="4.20217">
        <ele>382</ele>
        <time>2026-03-19T15:38:20Z</time>
      </trkpt>
      <trkpt lat="45.93932" lon="4.20211">
        <ele>380</ele>
        <time>2026-03-19T15:38:24Z</time>
      </trkpt>
      <trkpt lat="45.9391" lon="4.20186">
        <ele>378</ele>
        <time>2026-03-19T15:38:30Z</time>
      </trkpt>
      <trkpt lat="45.93882" lon="4.20162">
        <ele>378</ele>
        <time>2026-03-19T15:38:38Z</time>
      </trkpt>
      <trkpt lat="45.93872" lon="4.20155">
        <ele>379</ele>
        <time>2026-03-19T15:38:41Z</time>
      </trkpt>
      <trkpt lat="45.93861" lon="4.2015">
        <ele>381</ele>
        <time>2026-03-19T15:38:43Z</time>
      </trkpt>
      <trkpt lat="45.9384" lon="4.2015">
        <ele>382</ele>
        <time>2026-03-19T15:38:48Z</time>
      </trkpt>
      <trkpt lat="45.93827" lon="4.20147">
        <ele>383</ele>
        <time>2026-03-19T15:38:51Z</time>
      </trkpt>
      <trkpt lat="45.93819" lon="4.20147">
        <ele>384</ele>
        <time>2026-03-19T15:38:53Z</time>
      </trkpt>
      <trkpt lat="45.93807" lon="4.20143">
        <ele>385</ele>
        <time>2026-03-19T15:38:56Z</time>
      </trkpt>
      <trkpt lat="45.93802" lon="4.20138">
        <ele>386</ele>
        <time>2026-03-19T15:38:57Z</time>
      </trkpt>
      <trkpt lat="45.93798" lon="4.20131">
        <ele>387</ele>
        <time>2026-03-19T15:38:59Z</time>
      </trkpt>
      <trkpt lat="45.93796" lon="4.20126">
        <ele>388</ele>
        <time>2026-03-19T15:39:00Z</time>
      </trkpt>
      <trkpt lat="45.93759" lon="4.20113">
        <ele>393</ele>
        <time>2026-03-19T15:39:09Z</time>
      </trkpt>
      <trkpt lat="45.93743" lon="4.20114">
        <ele>395</ele>
        <time>2026-03-19T15:39:13Z</time>
      </trkpt>
      <trkpt lat="45.93741" lon="4.20107">
        <ele>396</ele>
        <time>2026-03-19T15:39:14Z</time>
      </trkpt>
      <trkpt lat="45.93758" lon="4.20086">
        <ele>398</ele>
        <time>2026-03-19T15:39:19Z</time>
      </trkpt>
      <trkpt lat="45.93753" lon="4.20068">
        <ele>400</ele>
        <time>2026-03-19T15:39:22Z</time>
      </trkpt>
      <trkpt lat="45.93723" lon="4.20026">
        <ele>408</ele>
        <time>2026-03-19T15:39:32Z</time>
      </trkpt>
      <trkpt lat="45.9369" lon="4.19994">
        <ele>414</ele>
        <time>2026-03-19T15:39:41Z</time>
      </trkpt>
      <trkpt lat="45.93656" lon="4.19949">
        <ele>418</ele>
        <time>2026-03-19T15:39:52Z</time>
      </trkpt>
      <trkpt lat="45.93564" lon="4.19879">
        <ele>427</ele>
        <time>2026-03-19T15:40:16Z</time>
      </trkpt>
      <trkpt lat="45.93467" lon="4.19789">
        <ele>434</ele>
        <time>2026-03-19T15:40:43Z</time>
      </trkpt>
      <trkpt lat="45.93424" lon="4.19765">
        <ele>435</ele>
        <time>2026-03-19T15:40:54Z</time>
      </trkpt>
      <trkpt lat="45.93358" lon="4.19736">
        <ele>441</ele>
        <time>2026-03-19T15:41:10Z</time>
      </trkpt>
      <trkpt lat="45.93292" lon="4.1969">
        <ele>447</ele>
        <time>2026-03-19T15:41:27Z</time>
      </trkpt>
      <trkpt lat="45.93182" lon="4.19681">
        <ele>453</ele>
        <time>2026-03-19T15:41:53Z</time>
      </trkpt>
      <trkpt lat="45.93026" lon="4.19666">
        <ele>463</ele>
        <time>2026-03-19T15:42:30Z</time>
      </trkpt>
      <trkpt lat="45.92917" lon="4.19652">
        <ele>469</ele>
        <time>2026-03-19T15:42:55Z</time>
      </trkpt>
      <trkpt lat="45.92887" lon="4.1966">
        <ele>467</ele>
        <time>2026-03-19T15:43:02Z</time>
      </trkpt>
      <trkpt lat="45.92863" lon="4.19676">
        <ele>466</ele>
        <time>2026-03-19T15:43:08Z</time>
      </trkpt>
      <trkpt lat="45.92852" lon="4.1969">
        <ele>466</ele>
        <time>2026-03-19T15:43:12Z</time>
      </trkpt>
      <trkpt lat="45.92832" lon="4.19684">
        <ele>466</ele>
        <time>2026-03-19T15:43:17Z</time>
      </trkpt>
      <trkpt lat="45.92677" lon="4.19632">
        <ele>480</ele>
        <time>2026-03-19T15:43:54Z</time>
      </trkpt>
      <trkpt lat="45.92659" lon="4.19622">
        <ele>481</ele>
        <time>2026-03-19T15:43:58Z</time>
      </trkpt>
      <trkpt lat="45.92649" lon="4.19615">
        <ele>482</ele>
        <time>2026-03-19T15:44:01Z</time>
      </trkpt>
      <trkpt lat="45.92638" lon="4.19602">
        <ele>482</ele>
        <time>2026-03-19T15:44:04Z</time>
      </trkpt>
      <trkpt lat="45.9261" lon="4.19549">
        <ele>485</ele>
        <time>2026-03-19T15:44:15Z</time>
      </trkpt>
      <trkpt lat="45.92602" lon="4.19539">
        <ele>486</ele>
        <time>2026-03-19T15:44:17Z</time>
      </trkpt>
      <trkpt lat="45.92589" lon="4.19528">
        <ele>488</ele>
        <time>2026-03-19T15:44:21Z</time>
      </trkpt>
      <trkpt lat="45.9256" lon="4.19511">
        <ele>491</ele>
        <time>2026-03-19T15:44:28Z</time>
      </trkpt>
      <trkpt lat="45.9254" lon="4.19504">
        <ele>494</ele>
        <time>2026-03-19T15:44:33Z</time>
      </trkpt>
      <trkpt lat="45.92519" lon="4.195">
        <ele>496</ele>
        <time>2026-03-19T15:44:38Z</time>
      </trkpt>
      <trkpt lat="45.92464" lon="4.19499">
        <ele>498</ele>
        <time>2026-03-19T15:44:51Z</time>
      </trkpt>
      <trkpt lat="45.92441" lon="4.19495">
        <ele>499</ele>
        <time>2026-03-19T15:44:56Z</time>
      </trkpt>
      <trkpt lat="45.92428" lon="4.19491">
        <ele>499</ele>
        <time>2026-03-19T15:44:59Z</time>
      </trkpt>
      <trkpt lat="45.92419" lon="4.19484">
        <ele>500</ele>
        <time>2026-03-19T15:45:02Z</time>
      </trkpt>
      <trkpt lat="45.92388" lon="4.1945">
        <ele>501</ele>
        <time>2026-03-19T15:45:11Z</time>
      </trkpt>
      <trkpt lat="45.92367" lon="4.19434">
        <ele>502</ele>
        <time>2026-03-19T15:45:16Z</time>
      </trkpt>
      <trkpt lat="45.92355" lon="4.19428">
        <ele>503</ele>
        <time>2026-03-19T15:45:19Z</time>
      </trkpt>
      <trkpt lat="45.92338" lon="4.19416">
        <ele>504</ele>
        <time>2026-03-19T15:45:24Z</time>
      </trkpt>
      <trkpt lat="45.92323" lon="4.19408">
        <ele>504</ele>
        <time>2026-03-19T15:45:28Z</time>
      </trkpt>
      <trkpt lat="45.92316" lon="4.19407">
        <ele>504</ele>
        <time>2026-03-19T15:45:29Z</time>
      </trkpt>
      <trkpt lat="45.92306" lon="4.19386">
        <ele>503</ele>
        <time>2026-03-19T15:45:33Z</time>
      </trkpt>
      <trkpt lat="45.92304" lon="4.19339">
        <ele>503</ele>
        <time>2026-03-19T15:45:41Z</time>
      </trkpt>
      <trkpt lat="45.92304" lon="4.19276">
        <ele>502</ele>
        <time>2026-03-19T15:45:51Z</time>
      </trkpt>
      <trkpt lat="45.923" lon="4.19231">
        <ele>502</ele>
        <time>2026-03-19T15:45:59Z</time>
      </trkpt>
      <trkpt lat="45.92294" lon="4.19209">
        <ele>502</ele>
        <time>2026-03-19T15:46:02Z</time>
      </trkpt>
      <trkpt lat="45.92287" lon="4.19136">
        <ele>503</ele>
        <time>2026-03-19T15:46:14Z</time>
      </trkpt>
      <trkpt lat="45.92287" lon="4.19126">
        <ele>503</ele>
        <time>2026-03-19T15:46:16Z</time>
      </trkpt>
      <trkpt lat="45.92273" lon="4.18964">
        <ele>505</ele>
        <time>2026-03-19T15:46:43Z</time>
      </trkpt>
      <trkpt lat="45.92269" lon="4.1884">
        <ele>510</ele>
        <time>2026-03-19T15:47:03Z</time>
      </trkpt>
      <trkpt lat="45.92265" lon="4.18766">
        <ele>514</ele>
        <time>2026-03-19T15:47:15Z</time>
      </trkpt>
      <trkpt lat="45.9225" lon="4.18649">
        <ele>521</ele>
        <time>2026-03-19T15:47:34Z</time>
      </trkpt>
      <trkpt lat="45.92242" lon="4.18549">
        <ele>529</ele>
        <time>2026-03-19T15:47:50Z</time>
      </trkpt>
      <trkpt lat="45.92242" lon="4.18503">
        <ele>531</ele>
        <time>2026-03-19T15:47:58Z</time>
      </trkpt>
      <trkpt lat="45.92244" lon="4.18495">
        <ele>531</ele>
        <time>2026-03-19T15:47:59Z</time>
      </trkpt>
      <trkpt lat="45.92252" lon="4.18454">
        <ele>528</ele>
        <time>2026-03-19T15:48:06Z</time>
      </trkpt>
      <trkpt lat="45.92328" lon="4.18262">
        <ele>517</ele>
        <time>2026-03-19T15:48:42Z</time>
      </trkpt>
      <trkpt lat="45.92333" lon="4.18242">
        <ele>518</ele>
        <time>2026-03-19T15:48:46Z</time>
      </trkpt>
      <trkpt lat="45.92318" lon="4.18201">
        <ele>521</ele>
        <time>2026-03-19T15:48:53Z</time>
      </trkpt>
      <trkpt lat="45.92311" lon="4.18177">
        <ele>523</ele>
        <time>2026-03-19T15:48:57Z</time>
      </trkpt>
      <trkpt lat="45.92312" lon="4.18147">
        <ele>526</ele>
        <time>2026-03-19T15:49:02Z</time>
      </trkpt>
      <trkpt lat="45.92347" lon="4.18091">
        <ele>531</ele>
        <time>2026-03-19T15:49:14Z</time>
      </trkpt>
      <trkpt lat="45.92358" lon="4.18057">
        <ele>533</ele>
        <time>2026-03-19T15:49:21Z</time>
      </trkpt>
      <trkpt lat="45.92356" lon="4.18006">
        <ele>539</ele>
        <time>2026-03-19T15:49:29Z</time>
      </trkpt>
      <trkpt lat="45.92359" lon="4.17929">
        <ele>545</ele>
        <time>2026-03-19T15:49:41Z</time>
      </trkpt>
      <trkpt lat="45.92355" lon="4.17898">
        <ele>549</ele>
        <time>2026-03-19T15:49:46Z</time>
      </trkpt>
      <trkpt lat="45.92361" lon="4.17866">
        <ele>552</ele>
        <time>2026-03-19T15:49:52Z</time>
      </trkpt>
      <trkpt lat="45.92371" lon="4.17849">
        <ele>553</ele>
        <time>2026-03-19T15:49:55Z</time>
      </trkpt>
      <trkpt lat="45.92402" lon="4.17824">
        <ele>553</ele>
        <time>2026-03-19T15:50:04Z</time>
      </trkpt>
      <trkpt lat="45.92404" lon="4.17813">
        <ele>554</ele>
        <time>2026-03-19T15:50:06Z</time>
      </trkpt>
      <trkpt lat="45.9241" lon="4.17809">
        <ele>553</ele>
        <time>2026-03-19T15:50:07Z</time>
      </trkpt>
      <trkpt lat="45.92425" lon="4.17796">
        <ele>553</ele>
        <time>2026-03-19T15:50:11Z</time>
      </trkpt>
      <trkpt lat="45.92442" lon="4.17785">
        <ele>553</ele>
        <time>2026-03-19T15:50:16Z</time>
      </trkpt>
      <trkpt lat="45.92465" lon="4.17763">
        <ele>552</ele>
        <time>2026-03-19T15:50:22Z</time>
      </trkpt>
      <trkpt lat="45.92484" lon="4.17729">
        <ele>552</ele>
        <time>2026-03-19T15:50:29Z</time>
      </trkpt>
      <trkpt lat="45.92494" lon="4.1768">
        <ele>553</ele>
        <time>2026-03-19T15:50:37Z</time>
      </trkpt>
      <trkpt lat="45.92527" lon="4.17593">
        <ele>555</ele>
        <time>2026-03-19T15:50:54Z</time>
      </trkpt>
      <trkpt lat="45.92539" lon="4.17578">
        <ele>555</ele>
        <time>2026-03-19T15:50:57Z</time>
      </trkpt>
      <trkpt lat="45.92558" lon="4.17575">
        <ele>553</ele>
        <time>2026-03-19T15:51:02Z</time>
      </trkpt>
      <trkpt lat="45.92581" lon="4.17575">
        <ele>550</ele>
        <time>2026-03-19T15:51:07Z</time>
      </trkpt>
      <trkpt lat="45.92612" lon="4.17565">
        <ele>550</ele>
        <time>2026-03-19T15:51:15Z</time>
      </trkpt>
      <trkpt lat="45.92639" lon="4.17563">
        <ele>549</ele>
        <time>2026-03-19T15:51:21Z</time>
      </trkpt>
      <trkpt lat="45.92689" lon="4.17534">
        <ele>551</ele>
        <time>2026-03-19T15:51:33Z</time>
      </trkpt>
      <trkpt lat="45.92693" lon="4.17527">
        <ele>551</ele>
        <time>2026-03-19T15:51:35Z</time>
      </trkpt>
      <trkpt lat="45.92586" lon="4.17468">
        <ele>562</ele>
        <time>2026-03-19T15:52:02Z</time>
      </trkpt>
      <trkpt lat="45.92563" lon="4.17461">
        <ele>568</ele>
        <time>2026-03-19T15:52:07Z</time>
      </trkpt>
      <trkpt lat="45.92564" lon="4.17366">
        <ele>572</ele>
        <time>2026-03-19T15:52:23Z</time>
      </trkpt>
      <trkpt lat="45.92565" lon="4.17343">
        <ele>572</ele>
        <time>2026-03-19T15:52:26Z</time>
      </trkpt>
      <trkpt lat="45.92569" lon="4.17313">
        <ele>571</ele>
        <time>2026-03-19T15:52:31Z</time>
      </trkpt>
      <trkpt lat="45.92569" lon="4.17299">
        <ele>571</ele>
        <time>2026-03-19T15:52:34Z</time>
      </trkpt>
      <trkpt lat="45.92564" lon="4.17247">
        <ele>574</ele>
        <time>2026-03-19T15:52:42Z</time>
      </trkpt>
      <trkpt lat="45.92565" lon="4.17213">
        <ele>580</ele>
        <time>2026-03-19T15:52:48Z</time>
      </trkpt>
      <trkpt lat="45.92568" lon="4.17205">
        <ele>581</ele>
        <time>2026-03-19T15:52:49Z</time>
      </trkpt>
      <trkpt lat="45.92577" lon="4.17195">
        <ele>582</ele>
        <time>2026-03-19T15:52:52Z</time>
      </trkpt>
      <trkpt lat="45.92621" lon="4.17167">
        <ele>580</ele>
        <time>2026-03-19T15:53:03Z</time>
      </trkpt>
      <trkpt lat="45.92638" lon="4.17157">
        <ele>578</ele>
        <time>2026-03-19T15:53:07Z</time>
      </trkpt>
      <trkpt lat="45.92653" lon="4.17146">
        <ele>576</ele>
        <time>2026-03-19T15:53:11Z</time>
      </trkpt>
      <trkpt lat="45.92668" lon="4.17127">
        <ele>575</ele>
        <time>2026-03-19T15:53:16Z</time>
      </trkpt>
      <trkpt lat="45.92679" lon="4.17106">
        <ele>575</ele>
        <time>2026-03-19T15:53:20Z</time>
      </trkpt>
      <trkpt lat="45.92686" lon="4.17079">
        <ele>576</ele>
        <time>2026-03-19T15:53:25Z</time>
      </trkpt>
      <trkpt lat="45.92692" lon="4.17047">
        <ele>575</ele>
        <time>2026-03-19T15:53:30Z</time>
      </trkpt>
      <trkpt lat="45.92719" lon="4.16974">
        <ele>571</ele>
        <time>2026-03-19T15:53:44Z</time>
      </trkpt>
      <trkpt lat="45.92729" lon="4.16975">
        <ele>571</ele>
        <time>2026-03-19T15:53:46Z</time>
      </trkpt>
      <trkpt lat="45.9274" lon="4.16973">
        <ele>570</ele>
        <time>2026-03-19T15:53:49Z</time>
      </trkpt>
      <trkpt lat="45.92756" lon="4.16969">
        <ele>569</ele>
        <time>2026-03-19T15:53:52Z</time>
      </trkpt>
      <trkpt lat="45.92782" lon="4.16957">
        <ele>569</ele>
        <time>2026-03-19T15:53:59Z</time>
      </trkpt>
      <trkpt lat="45.92807" lon="4.16953">
        <ele>570</ele>
        <time>2026-03-19T15:54:05Z</time>
      </trkpt>
      <trkpt lat="45.92882" lon="4.16961">
        <ele>567</ele>
        <time>2026-03-19T15:54:22Z</time>
      </trkpt>
      <trkpt lat="45.92896" lon="4.16961">
        <ele>567</ele>
        <time>2026-03-19T15:54:25Z</time>
      </trkpt>
      <trkpt lat="45.92966" lon="4.1695">
        <ele>565</ele>
        <time>2026-03-19T15:54:42Z</time>
      </trkpt>
      <trkpt lat="45.9298" lon="4.16949">
        <ele>565</ele>
        <time>2026-03-19T15:54:45Z</time>
      </trkpt>
      <trkpt lat="45.92998" lon="4.16952">
        <ele>564</ele>
        <time>2026-03-19T15:54:49Z</time>
      </trkpt>
      <trkpt lat="45.93015" lon="4.16957">
        <ele>564</ele>
        <time>2026-03-19T15:54:53Z</time>
      </trkpt>
      <trkpt lat="45.93039" lon="4.1697">
        <ele>565</ele>
        <time>2026-03-19T15:54:59Z</time>
      </trkpt>
      <trkpt lat="45.93054" lon="4.16984">
        <ele>565</ele>
        <time>2026-03-19T15:55:04Z</time>
      </trkpt>
      <trkpt lat="45.931" lon="4.17036">
        <ele>562</ele>
        <time>2026-03-19T15:55:17Z</time>
      </trkpt>
      <trkpt lat="45.93123" lon="4.17056">
        <ele>561</ele>
        <time>2026-03-19T15:55:24Z</time>
      </trkpt>
      <trkpt lat="45.93125" lon="4.17053">
        <ele>562</ele>
        <time>2026-03-19T15:55:24Z</time>
      </trkpt>
      <trkpt lat="45.93125" lon="4.17049">
        <ele>562</ele>
        <time>2026-03-19T15:55:25Z</time>
      </trkpt>
      <trkpt lat="45.93122" lon="4.17006">
        <ele>568</ele>
        <time>2026-03-19T15:55:32Z</time>
      </trkpt>
      <trkpt lat="45.93123" lon="4.16978">
        <ele>570</ele>
        <time>2026-03-19T15:55:36Z</time>
      </trkpt>
      <trkpt lat="45.93135" lon="4.16901">
        <ele>573</ele>
        <time>2026-03-19T15:55:49Z</time>
      </trkpt>
      <trkpt lat="45.93137" lon="4.16899">
        <ele>573</ele>
        <time>2026-03-19T15:55:50Z</time>
      </trkpt>
      <trkpt lat="45.93139" lon="4.16898">
        <ele>573</ele>
        <time>2026-03-19T15:55:50Z</time>
      </trkpt>
      <trkpt lat="45.93145" lon="4.16899">
        <ele>573</ele>
        <time>2026-03-19T15:55:52Z</time>
      </trkpt>
      <trkpt lat="45.93161" lon="4.16912">
        <ele>574</ele>
        <time>2026-03-19T15:55:56Z</time>
      </trkpt>
      <trkpt lat="45.93201" lon="4.16939">
        <ele>575</ele>
        <time>2026-03-19T15:56:06Z</time>
      </trkpt>
      <trkpt lat="45.93275" lon="4.16986">
        <ele>581</ele>
        <time>2026-03-19T15:56:25Z</time>
      </trkpt>
      <trkpt lat="45.93288" lon="4.16994">
        <ele>582</ele>
        <time>2026-03-19T15:56:29Z</time>
      </trkpt>
      <trkpt lat="45.93316" lon="4.17005">
        <ele>584</ele>
        <time>2026-03-19T15:56:35Z</time>
      </trkpt>
      <trkpt lat="45.93323" lon="4.17006">
        <ele>585</ele>
        <time>2026-03-19T15:56:37Z</time>
      </trkpt>
      <trkpt lat="45.93351" lon="4.1701">
        <ele>587</ele>
        <time>2026-03-19T15:56:44Z</time>
      </trkpt>
      <trkpt lat="45.93385" lon="4.17012">
        <ele>591</ele>
        <time>2026-03-19T15:56:51Z</time>
      </trkpt>
      <trkpt lat="45.93396" lon="4.17011">
        <ele>593</ele>
        <time>2026-03-19T15:56:54Z</time>
      </trkpt>
      <trkpt lat="45.93412" lon="4.17004">
        <ele>596</ele>
        <time>2026-03-19T15:56:58Z</time>
      </trkpt>
      <trkpt lat="45.93429" lon="4.1699">
        <ele>597</ele>
        <time>2026-03-19T15:57:03Z</time>
      </trkpt>
      <trkpt lat="45.93455" lon="4.16973">
        <ele>597</ele>
        <time>2026-03-19T15:57:09Z</time>
      </trkpt>
      <trkpt lat="45.93478" lon="4.16961">
        <ele>598</ele>
        <time>2026-03-19T15:57:15Z</time>
      </trkpt>
      <trkpt lat="45.93508" lon="4.16949">
        <ele>599</ele>
        <time>2026-03-19T15:57:22Z</time>
      </trkpt>
      <trkpt lat="45.93527" lon="4.16941">
        <ele>598</ele>
        <time>2026-03-19T15:57:27Z</time>
      </trkpt>
      <trkpt lat="45.93549" lon="4.16927">
        <ele>598</ele>
        <time>2026-03-19T15:57:32Z</time>
      </trkpt>
      <trkpt lat="45.93556" lon="4.16924">
        <ele>598</ele>
        <time>2026-03-19T15:57:34Z</time>
      </trkpt>
      <trkpt lat="45.93567" lon="4.16922">
        <ele>598</ele>
        <time>2026-03-19T15:57:37Z</time>
      </trkpt>
      <trkpt lat="45.93595" lon="4.16916">
        <ele>598</ele>
        <time>2026-03-19T15:57:43Z</time>
      </trkpt>
      <trkpt lat="45.93604" lon="4.16912">
        <ele>598</ele>
        <time>2026-03-19T15:57:46Z</time>
      </trkpt>
      <trkpt lat="45.93615" lon="4.16905">
        <ele>597</ele>
        <time>2026-03-19T15:57:48Z</time>
      </trkpt>
      <trkpt lat="45.93647" lon="4.16886">
        <ele>596</ele>
        <time>2026-03-19T15:57:56Z</time>
      </trkpt>
      <trkpt lat="45.9366" lon="4.16875">
        <ele>596</ele>
        <time>2026-03-19T15:58:00Z</time>
      </trkpt>
      <trkpt lat="45.93679" lon="4.16852">
        <ele>595</ele>
        <time>2026-03-19T15:58:06Z</time>
      </trkpt>
      <trkpt lat="45.93684" lon="4.1685">
        <ele>595</ele>
        <time>2026-03-19T15:58:07Z</time>
      </trkpt>
      <trkpt lat="45.93702" lon="4.16849">
        <ele>595</ele>
        <time>2026-03-19T15:58:11Z</time>
      </trkpt>
      <trkpt lat="45.93753" lon="4.16829">
        <ele>596</ele>
        <time>2026-03-19T15:58:24Z</time>
      </trkpt>
      <trkpt lat="45.93766" lon="4.16827">
        <ele>596</ele>
        <time>2026-03-19T15:58:27Z</time>
      </trkpt>
      <trkpt lat="45.93845" lon="4.16821">
        <ele>596</ele>
        <time>2026-03-19T15:58:45Z</time>
      </trkpt>
      <trkpt lat="45.93854" lon="4.16816">
        <ele>596</ele>
        <time>2026-03-19T15:58:47Z</time>
      </trkpt>
      <trkpt lat="45.93857" lon="4.16809">
        <ele>597</ele>
        <time>2026-03-19T15:58:49Z</time>
      </trkpt>
      <trkpt lat="45.93858" lon="4.16801">
        <ele>598</ele>
        <time>2026-03-19T15:58:50Z</time>
      </trkpt>
      <trkpt lat="45.93849" lon="4.16741">
        <ele>602</ele>
        <time>2026-03-19T15:59:00Z</time>
      </trkpt>
      <trkpt lat="45.93851" lon="4.16737">
        <ele>602</ele>
        <time>2026-03-19T15:59:01Z</time>
      </trkpt>
      <trkpt lat="45.93855" lon="4.16735">
        <ele>602</ele>
        <time>2026-03-19T15:59:02Z</time>
      </trkpt>
      <trkpt lat="45.93892" lon="4.1672">
        <ele>602</ele>
        <time>2026-03-19T15:59:11Z</time>
      </trkpt>
      <trkpt lat="45.93947" lon="4.16699">
        <ele>601</ele>
        <time>2026-03-19T15:59:24Z</time>
      </trkpt>
      <trkpt lat="45.93985" lon="4.1667">
        <ele>600</ele>
        <time>2026-03-19T15:59:34Z</time>
      </trkpt>
      <trkpt lat="45.94036" lon="4.16616">
        <ele>592</ele>
        <time>2026-03-19T15:59:49Z</time>
      </trkpt>
      <trkpt lat="45.94059" lon="4.16586">
        <ele>589</ele>
        <time>2026-03-19T15:59:56Z</time>
      </trkpt>
      <trkpt lat="45.94069" lon="4.1658">
        <ele>588</ele>
        <time>2026-03-19T15:59:59Z</time>
      </trkpt>
      <trkpt lat="45.9408" lon="4.16558">
        <ele>586</ele>
        <time>2026-03-19T16:00:03Z</time>
      </trkpt>
      <trkpt lat="45.94086" lon="4.16549">
        <ele>585</ele>
        <time>2026-03-19T16:00:05Z</time>
      </trkpt>
      <trkpt lat="45.94117" lon="4.16517">
        <ele>579</ele>
        <time>2026-03-19T16:00:14Z</time>
      </trkpt>
      <trkpt lat="45.94137" lon="4.16493">
        <ele>576</ele>
        <time>2026-03-19T16:00:20Z</time>
      </trkpt>
      <trkpt lat="45.94133" lon="4.16481">
        <ele>576</ele>
        <time>2026-03-19T16:00:22Z</time>
      </trkpt>
      <trkpt lat="45.94122" lon="4.16462">
        <ele>575</ele>
        <time>2026-03-19T16:00:26Z</time>
      </trkpt>
      <trkpt lat="45.94111" lon="4.16443">
        <ele>573</ele>
        <time>2026-03-19T16:00:30Z</time>
      </trkpt>
      <trkpt lat="45.94095" lon="4.16419">
        <ele>570</ele>
        <time>2026-03-19T16:00:36Z</time>
      </trkpt>
      <trkpt lat="45.94091" lon="4.16414">
        <ele>569</ele>
        <time>2026-03-19T16:00:37Z</time>
      </trkpt>
      <trkpt lat="45.94073" lon="4.16396">
        <ele>567</ele>
        <time>2026-03-19T16:00:42Z</time>
      </trkpt>
      <trkpt lat="45.9407" lon="4.1639">
        <ele>566</ele>
        <time>2026-03-19T16:00:43Z</time>
      </trkpt>
      <trkpt lat="45.94065" lon="4.16371">
        <ele>564</ele>
        <time>2026-03-19T16:00:46Z</time>
      </trkpt>
      <trkpt lat="45.94057" lon="4.16336">
        <ele>560</ele>
        <time>2026-03-19T16:00:52Z</time>
      </trkpt>
      <trkpt lat="45.94054" lon="4.16307">
        <ele>558</ele>
        <time>2026-03-19T16:00:57Z</time>
      </trkpt>
      <trkpt lat="45.94051" lon="4.16262">
        <ele>556</ele>
        <time>2026-03-19T16:01:05Z</time>
      </trkpt>
      <trkpt lat="45.9405" lon="4.16259">
        <ele>556</ele>
        <time>2026-03-19T16:01:05Z</time>
      </trkpt>
      <trkpt lat="45.94047" lon="4.16256">
        <ele>556</ele>
        <time>2026-03-19T16:01:06Z</time>
      </trkpt>
      <trkpt lat="45.94043" lon="4.16252">
        <ele>556</ele>
        <time>2026-03-19T16:01:07Z</time>
      </trkpt>
      <trkpt lat="45.94053" lon="4.16237">
        <ele>555</ele>
        <time>2026-03-19T16:01:10Z</time>
      </trkpt>
      <trkpt lat="45.9406" lon="4.16224">
        <ele>554</ele>
        <time>2026-03-19T16:01:13Z</time>
      </trkpt>
      <trkpt lat="45.94064" lon="4.16215">
        <ele>554</ele>
        <time>2026-03-19T16:01:15Z</time>
      </trkpt>
      <trkpt lat="45.94067" lon="4.162">
        <ele>553</ele>
        <time>2026-03-19T16:01:17Z</time>
      </trkpt>
      <trkpt lat="45.94072" lon="4.16173">
        <ele>552</ele>
        <time>2026-03-19T16:01:22Z</time>
      </trkpt>
      <trkpt lat="45.94071" lon="4.1609">
        <ele>552</ele>
        <time>2026-03-19T16:01:35Z</time>
      </trkpt>
      <trkpt lat="45.94073" lon="4.16053">
        <ele>551</ele>
        <time>2026-03-19T16:01:41Z</time>
      </trkpt>
      <trkpt lat="45.94075" lon="4.16038">
        <ele>551</ele>
        <time>2026-03-19T16:01:44Z</time>
      </trkpt>
      <trkpt lat="45.94088" lon="4.16">
        <ele>550</ele>
        <time>2026-03-19T16:01:51Z</time>
      </trkpt>
      <trkpt lat="45.94092" lon="4.15976">
        <ele>549</ele>
        <time>2026-03-19T16:01:55Z</time>
      </trkpt>
      <trkpt lat="45.94098" lon="4.15954">
        <ele>548</ele>
        <time>2026-03-19T16:01:59Z</time>
      </trkpt>
      <trkpt lat="45.94104" lon="4.15943">
        <ele>547</ele>
        <time>2026-03-19T16:02:01Z</time>
      </trkpt>
      <trkpt lat="45.9411" lon="4.15936">
        <ele>547</ele>
        <time>2026-03-19T16:02:03Z</time>
      </trkpt>
      <trkpt lat="45.94128" lon="4.15922">
        <ele>546</ele>
        <time>2026-03-19T16:02:08Z</time>
      </trkpt>
      <trkpt lat="45.94142" lon="4.15915">
        <ele>545</ele>
        <time>2026-03-19T16:02:11Z</time>
      </trkpt>
      <trkpt lat="45.94145" lon="4.15912">
        <ele>545</ele>
        <time>2026-03-19T16:02:12Z</time>
      </trkpt>
      <trkpt lat="45.94158" lon="4.15895">
        <ele>542</ele>
        <time>2026-03-19T16:02:16Z</time>
      </trkpt>
      <trkpt lat="45.94192" lon="4.1584">
        <ele>534</ele>
        <time>2026-03-19T16:02:28Z</time>
      </trkpt>
      <trkpt lat="45.94193" lon="4.15835">
        <ele>533</ele>
        <time>2026-03-19T16:02:29Z</time>
      </trkpt>
      <trkpt lat="45.94192" lon="4.15829">
        <ele>532</ele>
        <time>2026-03-19T16:02:30Z</time>
      </trkpt>
      <trkpt lat="45.94177" lon="4.15804">
        <ele>529</ele>
        <time>2026-03-19T16:02:35Z</time>
      </trkpt>
      <trkpt lat="45.94175" lon="4.15801">
        <ele>529</ele>
        <time>2026-03-19T16:02:36Z</time>
      </trkpt>
      <trkpt lat="45.94175" lon="4.15797">
        <ele>528</ele>
        <time>2026-03-19T16:02:36Z</time>
      </trkpt>
      <trkpt lat="45.94175" lon="4.15794">
        <ele>528</ele>
        <time>2026-03-19T16:02:37Z</time>
      </trkpt>
      <trkpt lat="45.94178" lon="4.1579">
        <ele>527</ele>
        <time>2026-03-19T16:02:38Z</time>
      </trkpt>
      <trkpt lat="45.94187" lon="4.15784">
        <ele>526</ele>
        <time>2026-03-19T16:02:40Z</time>
      </trkpt>
      <trkpt lat="45.94227" lon="4.15749">
        <ele>519</ele>
        <time>2026-03-19T16:02:51Z</time>
      </trkpt>
      <trkpt lat="45.94239" lon="4.15743">
        <ele>518</ele>
        <time>2026-03-19T16:02:54Z</time>
      </trkpt>
      <trkpt lat="45.94243" lon="4.1574">
        <ele>518</ele>
        <time>2026-03-19T16:02:55Z</time>
      </trkpt>
      <trkpt lat="45.94247" lon="4.15734">
        <ele>517</ele>
        <time>2026-03-19T16:02:56Z</time>
      </trkpt>
      <trkpt lat="45.94249" lon="4.15723">
        <ele>516</ele>
        <time>2026-03-19T16:02:58Z</time>
      </trkpt>
      <trkpt lat="45.94251" lon="4.15692">
        <ele>514</ele>
        <time>2026-03-19T16:03:03Z</time>
      </trkpt>
      <trkpt lat="45.94248" lon="4.15684">
        <ele>514</ele>
        <time>2026-03-19T16:03:05Z</time>
      </trkpt>
      <trkpt lat="45.94246" lon="4.15672">
        <ele>513</ele>
        <time>2026-03-19T16:03:07Z</time>
      </trkpt>
      <trkpt lat="45.94246" lon="4.15659">
        <ele>513</ele>
        <time>2026-03-19T16:03:09Z</time>
      </trkpt>
      <trkpt lat="45.94249" lon="4.15634">
        <ele>514</ele>
        <time>2026-03-19T16:03:13Z</time>
      </trkpt>
      <trkpt lat="45.94256" lon="4.15616">
        <ele>514</ele>
        <time>2026-03-19T16:03:16Z</time>
      </trkpt>
      <trkpt lat="45.94264" lon="4.15598">
        <ele>515</ele>
        <time>2026-03-19T16:03:20Z</time>
      </trkpt>
      <trkpt lat="45.94264" lon="4.15586">
        <ele>516</ele>
        <time>2026-03-19T16:03:22Z</time>
      </trkpt>
      <trkpt lat="45.94262" lon="4.15569">
        <ele>517</ele>
        <time>2026-03-19T16:03:25Z</time>
      </trkpt>
      <trkpt lat="45.94244" lon="4.15506">
        <ele>524</ele>
        <time>2026-03-19T16:03:36Z</time>
      </trkpt>
      <trkpt lat="45.94227" lon="4.15468">
        <ele>522</ele>
        <time>2026-03-19T16:03:43Z</time>
      </trkpt>
      <trkpt lat="45.94225" lon="4.15454">
        <ele>522</ele>
        <time>2026-03-19T16:03:45Z</time>
      </trkpt>
      <trkpt lat="45.94228" lon="4.15442">
        <ele>522</ele>
        <time>2026-03-19T16:03:47Z</time>
      </trkpt>
      <trkpt lat="45.94236" lon="4.15434">
        <ele>522</ele>
        <time>2026-03-19T16:03:50Z</time>
      </trkpt>
      <trkpt lat="45.94246" lon="4.15421">
        <ele>522</ele>
        <time>2026-03-19T16:03:53Z</time>
      </trkpt>
      <trkpt lat="45.94271" lon="4.15406">
        <ele>520</ele>
        <time>2026-03-19T16:03:59Z</time>
      </trkpt>
      <trkpt lat="45.9429" lon="4.15398">
        <ele>519</ele>
        <time>2026-03-19T16:04:04Z</time>
      </trkpt>
      <trkpt lat="45.94311" lon="4.15392">
        <ele>518</ele>
        <time>2026-03-19T16:04:09Z</time>
      </trkpt>
      <trkpt lat="45.9432" lon="4.15388">
        <ele>517</ele>
        <time>2026-03-19T16:04:11Z</time>
      </trkpt>
      <trkpt lat="45.94328" lon="4.15381">
        <ele>516</ele>
        <time>2026-03-19T16:04:13Z</time>
      </trkpt>
      <trkpt lat="45.94337" lon="4.15366">
        <ele>514</ele>
        <time>2026-03-19T16:04:16Z</time>
      </trkpt>
      <trkpt lat="45.94355" lon="4.15329">
        <ele>510</ele>
        <time>2026-03-19T16:04:24Z</time>
      </trkpt>
      <trkpt lat="45.94392" lon="4.15279">
        <ele>505</ele>
        <time>2026-03-19T16:04:36Z</time>
      </trkpt>
      <trkpt lat="45.94404" lon="4.15262">
        <ele>503</ele>
        <time>2026-03-19T16:04:40Z</time>
      </trkpt>
      <trkpt lat="45.94432" lon="4.15208">
        <ele>495</ele>
        <time>2026-03-19T16:04:50Z</time>
      </trkpt>
      <trkpt lat="45.94449" lon="4.15185">
        <ele>492</ele>
        <time>2026-03-19T16:04:56Z</time>
      </trkpt>
      <trkpt lat="45.94472" lon="4.15163">
        <ele>489</ele>
        <time>2026-03-19T16:05:02Z</time>
      </trkpt>
      <trkpt lat="45.94529" lon="4.15104">
        <ele>482</ele>
        <time>2026-03-19T16:05:19Z</time>
      </trkpt>
      <trkpt lat="45.94538" lon="4.15086">
        <ele>480</ele>
        <time>2026-03-19T16:05:22Z</time>
      </trkpt>
      <trkpt lat="45.94542" lon="4.1507">
        <ele>479</ele>
        <time>2026-03-19T16:05:25Z</time>
      </trkpt>
      <trkpt lat="45.94542" lon="4.15054">
        <ele>479</ele>
        <time>2026-03-19T16:05:28Z</time>
      </trkpt>
      <trkpt lat="45.94536" lon="4.1502">
        <ele>478</ele>
        <time>2026-03-19T16:05:33Z</time>
      </trkpt>
      <trkpt lat="45.94538" lon="4.15003">
        <ele>478</ele>
        <time>2026-03-19T16:05:36Z</time>
      </trkpt>
      <trkpt lat="45.94547" lon="4.14984">
        <ele>479</ele>
        <time>2026-03-19T16:05:40Z</time>
      </trkpt>
      <trkpt lat="45.94575" lon="4.14951">
        <ele>481</ele>
        <time>2026-03-19T16:05:48Z</time>
      </trkpt>
      <trkpt lat="45.94627" lon="4.14901">
        <ele>485</ele>
        <time>2026-03-19T16:06:03Z</time>
      </trkpt>
      <trkpt lat="45.94643" lon="4.14891">
        <ele>486</ele>
        <time>2026-03-19T16:06:07Z</time>
      </trkpt>
      <trkpt lat="45.94683" lon="4.14883">
        <ele>486</ele>
        <time>2026-03-19T16:06:17Z</time>
      </trkpt>
      <trkpt lat="45.94705" lon="4.14872">
        <ele>486</ele>
        <time>2026-03-19T16:06:22Z</time>
      </trkpt>
      <trkpt lat="45.94767" lon="4.1483">
        <ele>489</ele>
        <time>2026-03-19T16:06:38Z</time>
      </trkpt>
      <trkpt lat="45.9481" lon="4.14795">
        <ele>487</ele>
        <time>2026-03-19T16:06:50Z</time>
      </trkpt>
      <trkpt lat="45.94837" lon="4.1478">
        <ele>486</ele>
        <time>2026-03-19T16:06:56Z</time>
      </trkpt>
      <trkpt lat="45.94882" lon="4.14767">
        <ele>484</ele>
        <time>2026-03-19T16:07:07Z</time>
      </trkpt>
      <trkpt lat="45.949" lon="4.14759">
        <ele>484</ele>
        <time>2026-03-19T16:07:11Z</time>
      </trkpt>
      <trkpt lat="45.94935" lon="4.14726">
        <ele>483</ele>
        <time>2026-03-19T16:07:21Z</time>
      </trkpt>
      <trkpt lat="45.94955" lon="4.14699">
        <ele>481</ele>
        <time>2026-03-19T16:07:28Z</time>
      </trkpt>
      <trkpt lat="45.94964" lon="4.14687">
        <ele>480</ele>
        <time>2026-03-19T16:07:30Z</time>
      </trkpt>
      <trkpt lat="45.94971" lon="4.14669">
        <ele>480</ele>
        <time>2026-03-19T16:07:34Z</time>
      </trkpt>
      <trkpt lat="45.94978" lon="4.14605">
        <ele>479</ele>
        <time>2026-03-19T16:07:44Z</time>
      </trkpt>
      <trkpt lat="45.94977" lon="4.14595">
        <ele>479</ele>
        <time>2026-03-19T16:07:46Z</time>
      </trkpt>
      <trkpt lat="45.94972" lon="4.14574">
        <ele>479</ele>
        <time>2026-03-19T16:07:50Z</time>
      </trkpt>
      <trkpt lat="45.94943" lon="4.14489">
        <ele>481</ele>
        <time>2026-03-19T16:08:05Z</time>
      </trkpt>
      <trkpt lat="45.94934" lon="4.14454">
        <ele>482</ele>
        <time>2026-03-19T16:08:11Z</time>
      </trkpt>
      <trkpt lat="45.9494" lon="4.14439">
        <ele>481</ele>
        <time>2026-03-19T16:08:14Z</time>
      </trkpt>
      <trkpt lat="45.94972" lon="4.14407">
        <ele>478</ele>
        <time>2026-03-19T16:08:23Z</time>
      </trkpt>
      <trkpt lat="45.95041" lon="4.14295">
        <ele>471</ele>
        <time>2026-03-19T16:08:47Z</time>
      </trkpt>
      <trkpt lat="45.95087" lon="4.14272">
        <ele>469</ele>
        <time>2026-03-19T16:08:59Z</time>
      </trkpt>
      <trkpt lat="45.95167" lon="4.14195">
        <ele>464</ele>
        <time>2026-03-19T16:09:21Z</time>
      </trkpt>
      <trkpt lat="45.95179" lon="4.14186">
        <ele>463</ele>
        <time>2026-03-19T16:09:24Z</time>
      </trkpt>
      <trkpt lat="45.95192" lon="4.14186">
        <ele>462</ele>
        <time>2026-03-19T16:09:27Z</time>
      </trkpt>
      <trkpt lat="45.95222" lon="4.14193">
        <ele>460</ele>
        <time>2026-03-19T16:09:34Z</time>
      </trkpt>
      <trkpt lat="45.95256" lon="4.14204">
        <ele>457</ele>
        <time>2026-03-19T16:09:42Z</time>
      </trkpt>
      <trkpt lat="45.95273" lon="4.14216">
        <ele>456</ele>
        <time>2026-03-19T16:09:47Z</time>
      </trkpt>
      <trkpt lat="45.95308" lon="4.14255">
        <ele>452</ele>
        <time>2026-03-19T16:09:57Z</time>
      </trkpt>
      <trkpt lat="45.9532" lon="4.14265">
        <ele>451</ele>
        <time>2026-03-19T16:10:00Z</time>
      </trkpt>
      <trkpt lat="45.95341" lon="4.14281">
        <ele>448</ele>
        <time>2026-03-19T16:10:06Z</time>
      </trkpt>
      <trkpt lat="45.9536" lon="4.14289">
        <ele>445</ele>
        <time>2026-03-19T16:10:11Z</time>
      </trkpt>
      <trkpt lat="45.9537" lon="4.14291">
        <ele>444</ele>
        <time>2026-03-19T16:10:13Z</time>
      </trkpt>
      <trkpt lat="45.95394" lon="4.1429">
        <ele>440</ele>
        <time>2026-03-19T16:10:19Z</time>
      </trkpt>
      <trkpt lat="45.95423" lon="4.14285">
        <ele>436</ele>
        <time>2026-03-19T16:10:25Z</time>
      </trkpt>
      <trkpt lat="45.95447" lon="4.14285">
        <ele>434</ele>
        <time>2026-03-19T16:10:31Z</time>
      </trkpt>
      <trkpt lat="45.9549" lon="4.14291">
        <ele>430</ele>
        <time>2026-03-19T16:10:41Z</time>
      </trkpt>
      <trkpt lat="45.95503" lon="4.14291">
        <ele>429</ele>
        <time>2026-03-19T16:10:44Z</time>
      </trkpt>
      <trkpt lat="45.95515" lon="4.14287">
        <ele>427</ele>
        <time>2026-03-19T16:10:47Z</time>
      </trkpt>
      <trkpt lat="45.95537" lon="4.14279">
        <ele>425</ele>
        <time>2026-03-19T16:10:52Z</time>
      </trkpt>
      <trkpt lat="45.95567" lon="4.14257">
        <ele>424</ele>
        <time>2026-03-19T16:11:00Z</time>
      </trkpt>
      <trkpt lat="45.95588" lon="4.14238">
        <ele>422</ele>
        <time>2026-03-19T16:11:06Z</time>
      </trkpt>
      <trkpt lat="45.95634" lon="4.14191">
        <ele>415</ele>
        <time>2026-03-19T16:11:19Z</time>
      </trkpt>
      <trkpt lat="45.9569" lon="4.14138">
        <ele>409</ele>
        <time>2026-03-19T16:11:35Z</time>
      </trkpt>
      <trkpt lat="45.95721" lon="4.1409">
        <ele>408</ele>
        <time>2026-03-19T16:11:45Z</time>
      </trkpt>
      <trkpt lat="45.9575" lon="4.14066">
        <ele>408</ele>
        <time>2026-03-19T16:11:53Z</time>
      </trkpt>
      <trkpt lat="45.95862" lon="4.13997">
        <ele>401</ele>
        <time>2026-03-19T16:12:22Z</time>
      </trkpt>
      <trkpt lat="45.95914" lon="4.13942">
        <ele>401</ele>
        <time>2026-03-19T16:12:37Z</time>
      </trkpt>
      <trkpt lat="45.96019" lon="4.13818">
        <ele>389</ele>
        <time>2026-03-19T16:13:09Z</time>
      </trkpt>
      <trkpt lat="45.96104" lon="4.13695">
        <ele>382</ele>
        <time>2026-03-19T16:13:37Z</time>
      </trkpt>
      <trkpt lat="45.9612" lon="4.13673">
        <ele>379</ele>
        <time>2026-03-19T16:13:42Z</time>
      </trkpt>
      <trkpt lat="45.96134" lon="4.13647">
        <ele>377</ele>
        <time>2026-03-19T16:13:47Z</time>
      </trkpt>
      <trkpt lat="45.96151" lon="4.13625">
        <ele>374</ele>
        <time>2026-03-19T16:13:53Z</time>
      </trkpt>
      <trkpt lat="45.96161" lon="4.13615">
        <ele>372</ele>
        <time>2026-03-19T16:13:55Z</time>
      </trkpt>
      <trkpt lat="45.96167" lon="4.13613">
        <ele>370</ele>
        <time>2026-03-19T16:13:57Z</time>
      </trkpt>
      <trkpt lat="45.96172" lon="4.13612">
        <ele>369</ele>
        <time>2026-03-19T16:13:58Z</time>
      </trkpt>
      <trkpt lat="45.96181" lon="4.13615">
        <ele>368</ele>
        <time>2026-03-19T16:14:00Z</time>
      </trkpt>
      <trkpt lat="45.96188" lon="4.13621">
        <ele>366</ele>
        <time>2026-03-19T16:14:02Z</time>
      </trkpt>
      <trkpt lat="45.96196" lon="4.13632">
        <ele>364</ele>
        <time>2026-03-19T16:14:05Z</time>
      </trkpt>
      <trkpt lat="45.96201" lon="4.13647">
        <ele>362</ele>
        <time>2026-03-19T16:14:07Z</time>
      </trkpt>
      <trkpt lat="45.96202" lon="4.13662">
        <ele>361</ele>
        <time>2026-03-19T16:14:10Z</time>
      </trkpt>
      <trkpt lat="45.962" lon="4.13686">
        <ele>359</ele>
        <time>2026-03-19T16:14:14Z</time>
      </trkpt>
      <trkpt lat="45.96188" lon="4.13735">
        <ele>356</ele>
        <time>2026-03-19T16:14:22Z</time>
      </trkpt>
      <trkpt lat="45.96184" lon="4.13762">
        <ele>355</ele>
        <time>2026-03-19T16:14:27Z</time>
      </trkpt>
      <trkpt lat="45.96185" lon="4.13783">
        <ele>353</ele>
        <time>2026-03-19T16:14:30Z</time>
      </trkpt>
      <trkpt lat="45.9619" lon="4.138">
        <ele>351</ele>
        <time>2026-03-19T16:14:33Z</time>
      </trkpt>
      <trkpt lat="45.962" lon="4.13819">
        <ele>348</ele>
        <time>2026-03-19T16:14:37Z</time>
      </trkpt>
      <trkpt lat="45.96215" lon="4.13832">
        <ele>344</ele>
        <time>2026-03-19T16:14:41Z</time>
      </trkpt>
      <trkpt lat="45.96224" lon="4.13838">
        <ele>342</ele>
        <time>2026-03-19T16:14:43Z</time>
      </trkpt>
      <trkpt lat="45.96279" lon="4.13843">
        <ele>336</ele>
        <time>2026-03-19T16:14:56Z</time>
      </trkpt>
      <trkpt lat="45.96291" lon="4.13841">
        <ele>335</ele>
        <time>2026-03-19T16:14:59Z</time>
      </trkpt>
      <trkpt lat="45.96306" lon="4.13829">
        <ele>335</ele>
        <time>2026-03-19T16:15:03Z</time>
      </trkpt>
      <trkpt lat="45.96321" lon="4.13809">
        <ele>335</ele>
        <time>2026-03-19T16:15:08Z</time>
      </trkpt>
      <trkpt lat="45.96343" lon="4.13769">
        <ele>334</ele>
        <time>2026-03-19T16:15:16Z</time>
      </trkpt>
      <trkpt lat="45.96365" lon="4.13737">
        <ele>334</ele>
        <time>2026-03-19T16:15:23Z</time>
      </trkpt>
      <trkpt lat="45.9639" lon="4.13713">
        <ele>334</ele>
        <time>2026-03-19T16:15:30Z</time>
      </trkpt>
      <trkpt lat="45.96436" lon="4.13678">
        <ele>330</ele>
        <time>2026-03-19T16:15:43Z</time>
      </trkpt>
      <trkpt lat="45.96463" lon="4.13653">
        <ele>326</ele>
        <time>2026-03-19T16:15:50Z</time>
      </trkpt>
      <trkpt lat="45.96494" lon="4.1362">
        <ele>321</ele>
        <time>2026-03-19T16:15:59Z</time>
      </trkpt>
      <trkpt lat="45.9651" lon="4.13601">
        <ele>320</ele>
        <time>2026-03-19T16:16:04Z</time>
      </trkpt>
      <trkpt lat="45.96522" lon="4.13585">
        <ele>319</ele>
        <time>2026-03-19T16:16:08Z</time>
      </trkpt>
      <trkpt lat="45.96529" lon="4.13578">
        <ele>317</ele>
        <time>2026-03-19T16:16:10Z</time>
      </trkpt>
      <trkpt lat="45.96544" lon="4.13573">
        <ele>315</ele>
        <time>2026-03-19T16:16:13Z</time>
      </trkpt>
      <trkpt lat="45.96557" lon="4.13567">
        <ele>313</ele>
        <time>2026-03-19T16:16:17Z</time>
      </trkpt>
      <trkpt lat="45.96559" lon="4.13572">
        <ele>313</ele>
        <time>2026-03-19T16:16:17Z</time>
      </trkpt>
      <trkpt lat="45.96564" lon="4.1358">
        <ele>312</ele>
        <time>2026-03-19T16:16:19Z</time>
      </trkpt>
      <trkpt lat="45.96572" lon="4.13586">
        <ele>311</ele>
        <time>2026-03-19T16:16:21Z</time>
      </trkpt>
      <trkpt lat="45.96581" lon="4.13588">
        <ele>309</ele>
        <time>2026-03-19T16:16:23Z</time>
      </trkpt>
      <trkpt lat="45.96588" lon="4.13585">
        <ele>309</ele>
        <time>2026-03-19T16:16:25Z</time>
      </trkpt>
      <trkpt lat="45.96594" lon="4.13587">
        <ele>308</ele>
        <time>2026-03-19T16:16:27Z</time>
      </trkpt>
      <trkpt lat="45.96601" lon="4.13591">
        <ele>308</ele>
        <time>2026-03-19T16:16:28Z</time>
      </trkpt>
      <trkpt lat="45.96614" lon="4.13608">
        <ele>309</ele>
        <time>2026-03-19T16:16:32Z</time>
      </trkpt>
      <trkpt lat="45.96621" lon="4.13615">
        <ele>309</ele>
        <time>2026-03-19T16:16:34Z</time>
      </trkpt>
      <trkpt lat="45.96628" lon="4.13619">
        <ele>310</ele>
        <time>2026-03-19T16:16:36Z</time>
      </trkpt>
      <trkpt lat="45.96636" lon="4.1362">
        <ele>310</ele>
        <time>2026-03-19T16:16:38Z</time>
      </trkpt>
      <trkpt lat="45.96643" lon="4.13619">
        <ele>310</ele>
        <time>2026-03-19T16:16:40Z</time>
      </trkpt>
      <trkpt lat="45.96655" lon="4.1361">
        <ele>308</ele>
        <time>2026-03-19T16:16:43Z</time>
      </trkpt>
      <trkpt lat="45.96661" lon="4.13603">
        <ele>307</ele>
        <time>2026-03-19T16:16:45Z</time>
      </trkpt>
      <trkpt lat="45.96669" lon="4.13592">
        <ele>306</ele>
        <time>2026-03-19T16:16:47Z</time>
      </trkpt>
      <trkpt lat="45.96686" lon="4.13573">
        <ele>306</ele>
        <time>2026-03-19T16:16:52Z</time>
      </trkpt>
      <trkpt lat="45.96693" lon="4.13563">
        <ele>306</ele>
        <time>2026-03-19T16:16:55Z</time>
      </trkpt>
      <trkpt lat="45.96705" lon="4.13555">
        <ele>307</ele>
        <time>2026-03-19T16:16:58Z</time>
      </trkpt>
      <trkpt lat="45.9675" lon="4.13532">
        <ele>307</ele>
        <time>2026-03-19T16:17:09Z</time>
      </trkpt>
      <trkpt lat="45.9679" lon="4.13507">
        <ele>304</ele>
        <time>2026-03-19T16:17:19Z</time>
      </trkpt>
      <trkpt lat="45.96983" lon="4.13361">
        <ele>302</ele>
        <time>2026-03-19T16:18:10Z</time>
      </trkpt>
      <trkpt lat="45.97025" lon="4.1333">
        <ele>301</ele>
        <time>2026-03-19T16:18:21Z</time>
      </trkpt>
      <trkpt lat="45.97107" lon="4.13273">
        <ele>302</ele>
        <time>2026-03-19T16:18:42Z</time>
      </trkpt>
      <trkpt lat="45.97122" lon="4.13266">
        <ele>302</ele>
        <time>2026-03-19T16:18:46Z</time>
      </trkpt>
      <trkpt lat="45.9714" lon="4.13259">
        <ele>302</ele>
        <time>2026-03-19T16:18:50Z</time>
      </trkpt>
      <trkpt lat="45.97169" lon="4.13256">
        <ele>302</ele>
        <time>2026-03-19T16:18:57Z</time>
      </trkpt>
      <trkpt lat="45.97237" lon="4.13259">
        <ele>300</ele>
        <time>2026-03-19T16:19:13Z</time>
      </trkpt>
      <trkpt lat="45.97249" lon="4.13261">
        <ele>300</ele>
        <time>2026-03-19T16:19:16Z</time>
      </trkpt>
      <trkpt lat="45.97285" lon="4.13272">
        <ele>300</ele>
        <time>2026-03-19T16:19:24Z</time>
      </trkpt>
      <trkpt lat="45.97294" lon="4.13271">
        <ele>299</ele>
        <time>2026-03-19T16:19:26Z</time>
      </trkpt>
      <trkpt lat="45.97299" lon="4.13268">
        <ele>299</ele>
        <time>2026-03-19T16:19:28Z</time>
      </trkpt>
      <trkpt lat="45.97304" lon="4.13262">
        <ele>299</ele>
        <time>2026-03-19T16:19:29Z</time>
      </trkpt>
      <trkpt lat="45.97315" lon="4.13246">
        <ele>299</ele>
        <time>2026-03-19T16:19:33Z</time>
      </trkpt>
      <trkpt lat="45.97368" lon="4.13333">
        <ele>298</ele>
        <time>2026-03-19T16:19:52Z</time>
      </trkpt>
      <trkpt lat="45.97397" lon="4.13385">
        <ele>299</ele>
        <time>2026-03-19T16:20:02Z</time>
      </trkpt>
      <trkpt lat="45.97416" lon="4.13419">
        <ele>299</ele>
        <time>2026-03-19T16:20:10Z</time>
      </trkpt>
      <trkpt lat="45.97426" lon="4.13443">
        <ele>300</ele>
        <time>2026-03-19T16:20:14Z</time>
      </trkpt>
      <trkpt lat="45.97465" lon="4.13529">
        <ele>304</ele>
        <time>2026-03-19T16:20:31Z</time>
      </trkpt>
      <trkpt lat="45.97468" lon="4.1352">
        <ele>304</ele>
        <time>2026-03-19T16:20:32Z</time>
      </trkpt>
      <trkpt lat="45.97468" lon="4.13512">
        <ele>304</ele>
        <time>2026-03-19T16:20:34Z</time>
      </trkpt>
      <trkpt lat="45.97466" lon="4.13504">
        <ele>304</ele>
        <time>2026-03-19T16:20:35Z</time>
      </trkpt>
      <trkpt lat="45.97457" lon="4.13475">
        <ele>303</ele>
        <time>2026-03-19T16:20:40Z</time>
      </trkpt>
      <trkpt lat="45.97452" lon="4.13448">
        <ele>302</ele>
        <time>2026-03-19T16:20:45Z</time>
      </trkpt>
      <trkpt lat="45.97452" lon="4.13425">
        <ele>301</ele>
        <time>2026-03-19T16:20:48Z</time>
      </trkpt>
      <trkpt lat="45.97454" lon="4.13422">
        <ele>301</ele>
        <time>2026-03-19T16:20:49Z</time>
      </trkpt>
      <trkpt lat="45.97461" lon="4.13415">
        <ele>302</ele>
        <time>2026-03-19T16:20:51Z</time>
      </trkpt>
      <trkpt lat="45.97467" lon="4.13415">
        <ele>302</ele>
        <time>2026-03-19T16:20:53Z</time>
      </trkpt>
      <trkpt lat="45.97479" lon="4.13422">
        <ele>303</ele>
        <time>2026-03-19T16:20:56Z</time>
      </trkpt>
      <trkpt lat="45.97526" lon="4.13441">
        <ele>308</ele>
        <time>2026-03-19T16:21:07Z</time>
      </trkpt>
      <trkpt lat="45.97615" lon="4.13466">
        <ele>319</ele>
        <time>2026-03-19T16:21:28Z</time>
      </trkpt>
      <trkpt lat="45.97623" lon="4.13471">
        <ele>321</ele>
        <time>2026-03-19T16:21:30Z</time>
      </trkpt>
      <trkpt lat="45.97629" lon="4.13481">
        <ele>322</ele>
        <time>2026-03-19T16:21:32Z</time>
      </trkpt>
      <trkpt lat="45.97629" lon="4.1349">
        <ele>322</ele>
        <time>2026-03-19T16:21:34Z</time>
      </trkpt>
      <trkpt lat="45.97627" lon="4.13502">
        <ele>323</ele>
        <time>2026-03-19T16:21:36Z</time>
      </trkpt>
      <trkpt lat="45.9762" lon="4.13516">
        <ele>323</ele>
        <time>2026-03-19T16:21:39Z</time>
      </trkpt>
      <trkpt lat="45.97582" lon="4.13564">
        <ele>321</ele>
        <time>2026-03-19T16:21:50Z</time>
      </trkpt>
      <trkpt lat="45.97578" lon="4.13574">
        <ele>321</ele>
        <time>2026-03-19T16:21:52Z</time>
      </trkpt>
      <trkpt lat="45.97576" lon="4.13587">
        <ele>320</ele>
        <time>2026-03-19T16:21:54Z</time>
      </trkpt>
      <trkpt lat="45.97577" lon="4.13604">
        <ele>320</ele>
        <time>2026-03-19T16:21:57Z</time>
      </trkpt>
      <trkpt lat="45.9759" lon="4.13647">
        <ele>323</ele>
        <time>2026-03-19T16:22:05Z</time>
      </trkpt>
      <trkpt lat="45.97606" lon="4.13676">
        <ele>325</ele>
        <time>2026-03-19T16:22:11Z</time>
      </trkpt>
      <trkpt lat="45.97657" lon="4.13751">
        <ele>332</ele>
        <time>2026-03-19T16:22:28Z</time>
      </trkpt>
      <trkpt lat="45.97668" lon="4.13766">
        <ele>333</ele>
        <time>2026-03-19T16:22:31Z</time>
      </trkpt>
      <trkpt lat="45.97684" lon="4.13781">
        <ele>334</ele>
        <time>2026-03-19T16:22:36Z</time>
      </trkpt>
      <trkpt lat="45.97771" lon="4.13843">
        <ele>345</ele>
        <time>2026-03-19T16:22:59Z</time>
      </trkpt>
      <trkpt lat="45.9778" lon="4.13846">
        <ele>347</ele>
        <time>2026-03-19T16:23:01Z</time>
      </trkpt>
      <trkpt lat="45.97791" lon="4.13846">
        <ele>348</ele>
        <time>2026-03-19T16:23:03Z</time>
      </trkpt>
      <trkpt lat="45.97869" lon="4.13835">
        <ele>357</ele>
        <time>2026-03-19T16:23:22Z</time>
      </trkpt>
      <trkpt lat="45.9797" lon="4.13815">
        <ele>361</ele>
        <time>2026-03-19T16:23:45Z</time>
      </trkpt>
      <trkpt lat="45.97983" lon="4.1381">
        <ele>362</ele>
        <time>2026-03-19T16:23:49Z</time>
      </trkpt>
      <trkpt lat="45.97998" lon="4.13798">
        <ele>363</ele>
        <time>2026-03-19T16:23:53Z</time>
      </trkpt>
      <trkpt lat="45.98052" lon="4.13729">
        <ele>364</ele>
        <time>2026-03-19T16:24:09Z</time>
      </trkpt>
      <trkpt lat="45.98097" lon="4.13672">
        <ele>364</ele>
        <time>2026-03-19T16:24:23Z</time>
      </trkpt>
      <trkpt lat="45.98111" lon="4.13662">
        <ele>364</ele>
        <time>2026-03-19T16:24:27Z</time>
      </trkpt>
      <trkpt lat="45.98125" lon="4.13656">
        <ele>363</ele>
        <time>2026-03-19T16:24:30Z</time>
      </trkpt>
      <trkpt lat="45.98149" lon="4.13654">
        <ele>363</ele>
        <time>2026-03-19T16:24:36Z</time>
      </trkpt>
      <trkpt lat="45.98191" lon="4.13655">
        <ele>362</ele>
        <time>2026-03-19T16:24:46Z</time>
      </trkpt>
      <trkpt lat="45.98255" lon="4.13665">
        <ele>361</ele>
        <time>2026-03-19T16:25:01Z</time>
      </trkpt>
      <trkpt lat="45.98252" lon="4.13631">
        <ele>360</ele>
        <time>2026-03-19T16:25:06Z</time>
      </trkpt>
      <trkpt lat="45.98244" lon="4.13541">
        <ele>358</ele>
        <time>2026-03-19T16:25:21Z</time>
      </trkpt>
      <trkpt lat="45.9824" lon="4.13512">
        <ele>358</ele>
        <time>2026-03-19T16:25:26Z</time>
      </trkpt>
      <trkpt lat="45.98232" lon="4.13482">
        <ele>357</ele>
        <time>2026-03-19T16:25:31Z</time>
      </trkpt>
      <trkpt lat="45.98227" lon="4.13476">
        <ele>357</ele>
        <time>2026-03-19T16:25:33Z</time>
      </trkpt>
      <trkpt lat="45.98215" lon="4.13422">
        <ele>356</ele>
        <time>2026-03-19T16:25:42Z</time>
      </trkpt>
      <trkpt lat="45.98186" lon="4.13266">
        <ele>355</ele>
        <time>2026-03-19T16:26:08Z</time>
      </trkpt>
      <trkpt lat="45.98238" lon="4.13271">
        <ele>354</ele>
        <time>2026-03-19T16:26:20Z</time>
      </trkpt>
      <trkpt lat="45.9825" lon="4.13266">
        <ele>354</ele>
        <time>2026-03-19T16:26:23Z</time>
      </trkpt>
      <trkpt lat="45.98263" lon="4.13251">
        <ele>353</ele>
        <time>2026-03-19T16:26:27Z</time>
      </trkpt>
      <trkpt lat="45.98291" lon="4.1319">
        <ele>350</ele>
        <time>2026-03-19T16:26:39Z</time>
      </trkpt>
      <trkpt lat="45.98327" lon="4.13095">
        <ele>345</ele>
        <time>2026-03-19T16:26:57Z</time>
      </trkpt>
      <trkpt lat="45.98372" lon="4.12749">
        <ele>334</ele>
        <time>2026-03-19T16:27:54Z</time>
      </trkpt>
      <trkpt lat="45.98533" lon="4.12735">
        <ele>329</ele>
        <time>2026-03-19T16:28:31Z</time>
      </trkpt>
      <trkpt lat="45.987" lon="4.12778">
        <ele>328</ele>
        <time>2026-03-19T16:29:11Z</time>
      </trkpt>
      <trkpt lat="45.98692" lon="4.1281">
        <ele>329</ele>
        <time>2026-03-19T16:29:16Z</time>
      </trkpt>
      <trkpt lat="45.98796" lon="4.1306">
        <ele>338</ele>
        <time>2026-03-19T16:30:04Z</time>
      </trkpt>
      <trkpt lat="45.98912" lon="4.13108">
        <ele>337</ele>
        <time>2026-03-19T16:30:32Z</time>
      </trkpt>
      <trkpt lat="45.98992" lon="4.13209">
        <ele>336</ele>
        <time>2026-03-19T16:30:57Z</time>
      </trkpt>
      <trkpt lat="45.99009" lon="4.13273">
        <ele>337</ele>
        <time>2026-03-19T16:31:08Z</time>
      </trkpt>
      <trkpt lat="45.99072" lon="4.13306">
        <ele>337</ele>
        <time>2026-03-19T16:31:24Z</time>
      </trkpt>
      <trkpt lat="45.99147" lon="4.13342">
        <ele>334</ele>
        <time>2026-03-19T16:31:42Z</time>
      </trkpt>
      <trkpt lat="45.99181" lon="4.13354">
        <ele>333</ele>
        <time>2026-03-19T16:31:50Z</time>
      </trkpt>
      <trkpt lat="45.99218" lon="4.13367">
        <ele>332</ele>
        <time>2026-03-19T16:31:59Z</time>
      </trkpt>
      <trkpt lat="45.99228" lon="4.13368">
        <ele>332</ele>
        <time>2026-03-19T16:32:01Z</time>
      </trkpt>
      <trkpt lat="45.99296" lon="4.13363">
        <ele>326</ele>
        <time>2026-03-19T16:32:17Z</time>
      </trkpt>
      <trkpt lat="45.99308" lon="4.13362">
        <ele>324</ele>
        <time>2026-03-19T16:32:20Z</time>
      </trkpt>
      <trkpt lat="45.99317" lon="4.13354">
        <ele>323</ele>
        <time>2026-03-19T16:32:23Z</time>
      </trkpt>
      <trkpt lat="45.99324" lon="4.13344">
        <ele>322</ele>
        <time>2026-03-19T16:32:25Z</time>
      </trkpt>
      <trkpt lat="45.99326" lon="4.13304">
        <ele>321</ele>
        <time>2026-03-19T16:32:31Z</time>
      </trkpt>
      <trkpt lat="45.99325" lon="4.13281">
        <ele>320</ele>
        <time>2026-03-19T16:32:35Z</time>
      </trkpt>
      <trkpt lat="45.99323" lon="4.13255">
        <ele>319</ele>
        <time>2026-03-19T16:32:39Z</time>
      </trkpt>
      <trkpt lat="45.99324" lon="4.13239">
        <ele>319</ele>
        <time>2026-03-19T16:32:42Z</time>
      </trkpt>
      <trkpt lat="45.99331" lon="4.13223">
        <ele>317</ele>
        <time>2026-03-19T16:32:45Z</time>
      </trkpt>
      <trkpt lat="45.99343" lon="4.13211">
        <ele>316</ele>
        <time>2026-03-19T16:32:48Z</time>
      </trkpt>
      <trkpt lat="45.99402" lon="4.13166">
        <ele>315</ele>
        <time>2026-03-19T16:33:04Z</time>
      </trkpt>
      <trkpt lat="45.99413" lon="4.13152">
        <ele>316</ele>
        <time>2026-03-19T16:33:08Z</time>
      </trkpt>
      <trkpt lat="45.99461" lon="4.13192">
        <ele>317</ele>
        <time>2026-03-19T16:33:20Z</time>
      </trkpt>
      <trkpt lat="45.9949" lon="4.13214">
        <ele>318</ele>
        <time>2026-03-19T16:33:28Z</time>
      </trkpt>
      <trkpt lat="45.99498" lon="4.13217">
        <ele>318</ele>
        <time>2026-03-19T16:33:30Z</time>
      </trkpt>
      <trkpt lat="45.99532" lon="4.13211">
        <ele>320</ele>
        <time>2026-03-19T16:33:38Z</time>
      </trkpt>
      <trkpt lat="45.99559" lon="4.13205">
        <ele>321</ele>
        <time>2026-03-19T16:33:44Z</time>
      </trkpt>
      <trkpt lat="45.99626" lon="4.13193">
        <ele>324</ele>
        <time>2026-03-19T16:34:00Z</time>
      </trkpt>
      <trkpt lat="45.99646" lon="4.13192">
        <ele>325</ele>
        <time>2026-03-19T16:34:05Z</time>
      </trkpt>
      <trkpt lat="45.99663" lon="4.13193">
        <ele>325</ele>
        <time>2026-03-19T16:34:09Z</time>
      </trkpt>
      <trkpt lat="45.99666" lon="4.13199">
        <ele>325</ele>
        <time>2026-03-19T16:34:10Z</time>
      </trkpt>
      <trkpt lat="45.99669" lon="4.13208">
        <ele>325</ele>
        <time>2026-03-19T16:34:12Z</time>
      </trkpt>
      <trkpt lat="45.99672" lon="4.13226">
        <ele>325</ele>
        <time>2026-03-19T16:34:15Z</time>
      </trkpt>
      <trkpt lat="45.99675" lon="4.13239">
        <ele>325</ele>
        <time>2026-03-19T16:34:17Z</time>
      </trkpt>
      <trkpt lat="45.99679" lon="4.13249">
        <ele>325</ele>
        <time>2026-03-19T16:34:19Z</time>
      </trkpt>
      <trkpt lat="45.99683" lon="4.13255">
        <ele>326</ele>
        <time>2026-03-19T16:34:20Z</time>
      </trkpt>
      <trkpt lat="45.99688" lon="4.13257">
        <ele>326</ele>
        <time>2026-03-19T16:34:21Z</time>
      </trkpt>
      <trkpt lat="45.99699" lon="4.13258">
        <ele>328</ele>
        <time>2026-03-19T16:34:24Z</time>
      </trkpt>
      <trkpt lat="45.99737" lon="4.13254">
        <ele>331</ele>
        <time>2026-03-19T16:34:33Z</time>
      </trkpt>
      <trkpt lat="45.99745" lon="4.13255">
        <ele>332</ele>
        <time>2026-03-19T16:34:35Z</time>
      </trkpt>
      <trkpt lat="45.99779" lon="4.13283">
        <ele>336</ele>
        <time>2026-03-19T16:34:44Z</time>
      </trkpt>
      <trkpt lat="45.99801" lon="4.133">
        <ele>339</ele>
        <time>2026-03-19T16:34:50Z</time>
      </trkpt>
      <trkpt lat="45.9982" lon="4.13311">
        <ele>341</ele>
        <time>2026-03-19T16:34:54Z</time>
      </trkpt>
      <trkpt lat="45.99852" lon="4.13325">
        <ele>345</ele>
        <time>2026-03-19T16:35:02Z</time>
      </trkpt>
      <trkpt lat="45.99931" lon="4.13369">
        <ele>356</ele>
        <time>2026-03-19T16:35:22Z</time>
      </trkpt>
      <trkpt lat="45.99941" lon="4.13372">
        <ele>357</ele>
        <time>2026-03-19T16:35:24Z</time>
      </trkpt>
      <trkpt lat="45.99946" lon="4.13369">
        <ele>358</ele>
        <time>2026-03-19T16:35:26Z</time>
      </trkpt>
      <trkpt lat="45.99953" lon="4.13358">
        <ele>359</ele>
        <time>2026-03-19T16:35:28Z</time>
      </trkpt>
      <trkpt lat="45.99958" lon="4.13355">
        <ele>359</ele>
        <time>2026-03-19T16:35:29Z</time>
      </trkpt>
      <trkpt lat="45.99966" lon="4.13355">
        <ele>360</ele>
        <time>2026-03-19T16:35:31Z</time>
      </trkpt>
      <trkpt lat="45.99975" lon="4.13357">
        <ele>362</ele>
        <time>2026-03-19T16:35:33Z</time>
      </trkpt>
      <trkpt lat="45.99993" lon="4.13364">
        <ele>364</ele>
        <time>2026-03-19T16:35:38Z</time>
      </trkpt>
      <trkpt lat="46.00011" lon="4.13366">
        <ele>367</ele>
        <time>2026-03-19T16:35:42Z</time>
      </trkpt>
      <trkpt lat="46.00035" lon="4.13367">
        <ele>370</ele>
        <time>2026-03-19T16:35:48Z</time>
      </trkpt>
      <trkpt lat="46.00035" lon="4.13374">
        <ele>370</ele>
        <time>2026-03-19T16:35:49Z</time>
      </trkpt>
      <trkpt lat="46.00036" lon="4.13421">
        <ele>371</ele>
        <time>2026-03-19T16:35:56Z</time>
      </trkpt>
      <trkpt lat="46.00037" lon="4.13435">
        <ele>371</ele>
        <time>2026-03-19T16:35:59Z</time>
      </trkpt>
      <trkpt lat="46.00035" lon="4.13489">
        <ele>369</ele>
        <time>2026-03-19T16:36:07Z</time>
      </trkpt>
      <trkpt lat="46.00036" lon="4.13499">
        <ele>369</ele>
        <time>2026-03-19T16:36:09Z</time>
      </trkpt>
      <trkpt lat="46.00043" lon="4.13514">
        <ele>370</ele>
        <time>2026-03-19T16:36:12Z</time>
      </trkpt>
      <trkpt lat="46.00083" lon="4.13537">
        <ele>376</ele>
        <time>2026-03-19T16:36:22Z</time>
      </trkpt>
      <trkpt lat="46.00123" lon="4.13571">
        <ele>379</ele>
        <time>2026-03-19T16:36:33Z</time>
      </trkpt>
      <trkpt lat="46.00156" lon="4.13594">
        <ele>383</ele>
        <time>2026-03-19T16:36:41Z</time>
      </trkpt>
      <trkpt lat="46.00176" lon="4.1361">
        <ele>385</ele>
        <time>2026-03-19T16:36:47Z</time>
      </trkpt>
      <trkpt lat="46.00169" lon="4.13627">
        <ele>385</ele>
        <time>2026-03-19T16:36:50Z</time>
      </trkpt>
      <trkpt lat="46.00153" lon="4.13683">
        <ele>384</ele>
        <time>2026-03-19T16:37:00Z</time>
      </trkpt>
      <trkpt lat="46.00134" lon="4.13729">
        <ele>384</ele>
        <time>2026-03-19T16:37:08Z</time>
      </trkpt>
      <trkpt lat="46.00082" lon="4.13857">
        <ele>388</ele>
        <time>2026-03-19T16:37:32Z</time>
      </trkpt>
      <trkpt lat="46.00075" lon="4.13877">
        <ele>388</ele>
        <time>2026-03-19T16:37:36Z</time>
      </trkpt>
      <trkpt lat="46.00067" lon="4.13918">
        <ele>389</ele>
        <time>2026-03-19T16:37:43Z</time>
      </trkpt>
      <trkpt lat="46.00064" lon="4.13953">
        <ele>391</ele>
        <time>2026-03-19T16:37:49Z</time>
      </trkpt>
      <trkpt lat="46.00064" lon="4.1397">
        <ele>392</ele>
        <time>2026-03-19T16:37:52Z</time>
      </trkpt>
      <trkpt lat="46.00062" lon="4.13987">
        <ele>393</ele>
        <time>2026-03-19T16:37:54Z</time>
      </trkpt>
      <trkpt lat="46.00048" lon="4.14041">
        <ele>393</ele>
        <time>2026-03-19T16:38:04Z</time>
      </trkpt>
      <trkpt lat="46.0003" lon="4.14109">
        <ele>393</ele>
        <time>2026-03-19T16:38:15Z</time>
      </trkpt>
      <trkpt lat="46.00024" lon="4.14149">
        <ele>393</ele>
        <time>2026-03-19T16:38:22Z</time>
      </trkpt>
      <trkpt lat="46.00018" lon="4.14203">
        <ele>394</ele>
        <time>2026-03-19T16:38:31Z</time>
      </trkpt>
      <trkpt lat="46.00013" lon="4.14214">
        <ele>395</ele>
        <time>2026-03-19T16:38:33Z</time>
      </trkpt>
      <trkpt lat="45.99986" lon="4.14292">
        <ele>394</ele>
        <time>2026-03-19T16:38:47Z</time>
      </trkpt>
      <trkpt lat="45.99978" lon="4.14325">
        <ele>392</ele>
        <time>2026-03-19T16:38:53Z</time>
      </trkpt>
      <trkpt lat="45.99976" lon="4.14347">
        <ele>392</ele>
        <time>2026-03-19T16:38:57Z</time>
      </trkpt>
      <trkpt lat="45.99976" lon="4.14355">
        <ele>392</ele>
        <time>2026-03-19T16:38:58Z</time>
      </trkpt>
      <trkpt lat="45.99976" lon="4.14372">
        <ele>393</ele>
        <time>2026-03-19T16:39:01Z</time>
      </trkpt>
      <trkpt lat="45.99981" lon="4.1448">
        <ele>394</ele>
        <time>2026-03-19T16:39:18Z</time>
      </trkpt>
      <trkpt lat="45.99979" lon="4.14497">
        <ele>394</ele>
        <time>2026-03-19T16:39:21Z</time>
      </trkpt>
      <trkpt lat="45.99973" lon="4.14525">
        <ele>393</ele>
        <time>2026-03-19T16:39:26Z</time>
      </trkpt>
      <trkpt lat="45.99964" lon="4.14566">
        <ele>393</ele>
        <time>2026-03-19T16:39:33Z</time>
      </trkpt>
      <trkpt lat="45.99959" lon="4.14593">
        <ele>393</ele>
        <time>2026-03-19T16:39:37Z</time>
      </trkpt>
      <trkpt lat="45.99954" lon="4.14651">
        <ele>392</ele>
        <time>2026-03-19T16:39:47Z</time>
      </trkpt>
      <trkpt lat="45.99951" lon="4.14672">
        <ele>392</ele>
        <time>2026-03-19T16:39:50Z</time>
      </trkpt>
      <trkpt lat="45.99945" lon="4.14696">
        <ele>391</ele>
        <time>2026-03-19T16:39:54Z</time>
      </trkpt>
      <trkpt lat="45.99931" lon="4.14722">
        <ele>390</ele>
        <time>2026-03-19T16:40:00Z</time>
      </trkpt>
      <trkpt lat="45.99916" lon="4.14748">
        <ele>390</ele>
        <time>2026-03-19T16:40:05Z</time>
      </trkpt>
      <trkpt lat="45.99885" lon="4.14791">
        <ele>384</ele>
        <time>2026-03-19T16:40:15Z</time>
      </trkpt>
      <trkpt lat="45.99841" lon="4.14856">
        <ele>378</ele>
        <time>2026-03-19T16:40:30Z</time>
      </trkpt>
      <trkpt lat="45.99788" lon="4.14904">
        <ele>372</ele>
        <time>2026-03-19T16:40:45Z</time>
      </trkpt>
      <trkpt lat="45.99764" lon="4.14927">
        <ele>370</ele>
        <time>2026-03-19T16:40:51Z</time>
      </trkpt>
      <trkpt lat="45.99745" lon="4.14944">
        <ele>367</ele>
        <time>2026-03-19T16:40:56Z</time>
      </trkpt>
      <trkpt lat="45.99737" lon="4.14958">
        <ele>364</ele>
        <time>2026-03-19T16:40:59Z</time>
      </trkpt>
      <trkpt lat="45.99728" lon="4.14984">
        <ele>361</ele>
        <time>2026-03-19T16:41:04Z</time>
      </trkpt>
      <trkpt lat="45.99722" lon="4.15034">
        <ele>360</ele>
        <time>2026-03-19T16:41:12Z</time>
      </trkpt>
      <trkpt lat="45.99723" lon="4.15076">
        <ele>360</ele>
        <time>2026-03-19T16:41:19Z</time>
      </trkpt>
      <trkpt lat="45.99719" lon="4.15084">
        <ele>360</ele>
        <time>2026-03-19T16:41:21Z</time>
      </trkpt>
      <trkpt lat="45.99706" lon="4.15074">
        <ele>359</ele>
        <time>2026-03-19T16:41:24Z</time>
      </trkpt>
      <trkpt lat="45.99643" lon="4.15006">
        <ele>352</ele>
        <time>2026-03-19T16:41:43Z</time>
      </trkpt>
      <trkpt lat="45.99633" lon="4.15004">
        <ele>351</ele>
        <time>2026-03-19T16:41:45Z</time>
      </trkpt>
      <trkpt lat="45.9962" lon="4.15005">
        <ele>350</ele>
        <time>2026-03-19T16:41:48Z</time>
      </trkpt>
      <trkpt lat="45.99609" lon="4.15017">
        <ele>349</ele>
        <time>2026-03-19T16:41:51Z</time>
      </trkpt>
      <trkpt lat="45.99598" lon="4.15045">
        <ele>350</ele>
        <time>2026-03-19T16:41:56Z</time>
      </trkpt>
      <trkpt lat="45.99583" lon="4.15075">
        <ele>350</ele>
        <time>2026-03-19T16:42:02Z</time>
      </trkpt>
      <trkpt lat="45.99557" lon="4.15139">
        <ele>355</ele>
        <time>2026-03-19T16:42:14Z</time>
      </trkpt>
      <trkpt lat="45.99526" lon="4.15202">
        <ele>355</ele>
        <time>2026-03-19T16:42:27Z</time>
      </trkpt>
      <trkpt lat="45.99524" lon="4.15213">
        <ele>355</ele>
        <time>2026-03-19T16:42:29Z</time>
      </trkpt>
      <trkpt lat="45.99526" lon="4.1522">
        <ele>356</ele>
        <time>2026-03-19T16:42:30Z</time>
      </trkpt>
      <trkpt lat="45.99525" lon="4.15232">
        <ele>356</ele>
        <time>2026-03-19T16:42:32Z</time>
      </trkpt>
      <trkpt lat="45.99521" lon="4.15246">
        <ele>356</ele>
        <time>2026-03-19T16:42:34Z</time>
      </trkpt>
      <trkpt lat="45.99515" lon="4.15258">
        <ele>356</ele>
        <time>2026-03-19T16:42:37Z</time>
      </trkpt>
      <trkpt lat="45.9951" lon="4.15277">
        <ele>356</ele>
        <time>2026-03-19T16:42:40Z</time>
      </trkpt>
      <trkpt lat="45.995" lon="4.15298">
        <ele>356</ele>
        <time>2026-03-19T16:42:44Z</time>
      </trkpt>
      <trkpt lat="45.9949" lon="4.15317">
        <ele>357</ele>
        <time>2026-03-19T16:42:48Z</time>
      </trkpt>
      <trkpt lat="45.99476" lon="4.15336">
        <ele>357</ele>
        <time>2026-03-19T16:42:53Z</time>
      </trkpt>
      <trkpt lat="45.99452" lon="4.15365">
        <ele>358</ele>
        <time>2026-03-19T16:43:00Z</time>
      </trkpt>
      <trkpt lat="45.99429" lon="4.15389">
        <ele>360</ele>
        <time>2026-03-19T16:43:07Z</time>
      </trkpt>
      <trkpt lat="45.99426" lon="4.15395">
        <ele>360</ele>
        <time>2026-03-19T16:43:08Z</time>
      </trkpt>
      <trkpt lat="45.9936" lon="4.15458">
        <ele>364</ele>
        <time>2026-03-19T16:43:26Z</time>
      </trkpt>
      <trkpt lat="45.99322" lon="4.15483">
        <ele>367</ele>
        <time>2026-03-19T16:43:36Z</time>
      </trkpt>
      <trkpt lat="45.99287" lon="4.15497">
        <ele>370</ele>
        <time>2026-03-19T16:43:45Z</time>
      </trkpt>
      <trkpt lat="45.99273" lon="4.15505">
        <ele>371</ele>
        <time>2026-03-19T16:43:48Z</time>
      </trkpt>
      <trkpt lat="45.99263" lon="4.15512">
        <ele>372</ele>
        <time>2026-03-19T16:43:51Z</time>
      </trkpt>
      <trkpt lat="45.99239" lon="4.15533">
        <ele>374</ele>
        <time>2026-03-19T16:43:57Z</time>
      </trkpt>
      <trkpt lat="45.99222" lon="4.15544">
        <ele>374</ele>
        <time>2026-03-19T16:44:02Z</time>
      </trkpt>
      <trkpt lat="45.9918" lon="4.15555">
        <ele>376</ele>
        <time>2026-03-19T16:44:12Z</time>
      </trkpt>
      <trkpt lat="45.99162" lon="4.15562">
        <ele>377</ele>
        <time>2026-03-19T16:44:16Z</time>
      </trkpt>
      <trkpt lat="45.99151" lon="4.15566">
        <ele>377</ele>
        <time>2026-03-19T16:44:19Z</time>
      </trkpt>
      <trkpt lat="45.99131" lon="4.15579">
        <ele>377</ele>
        <time>2026-03-19T16:44:24Z</time>
      </trkpt>
      <trkpt lat="45.99119" lon="4.15582">
        <ele>378</ele>
        <time>2026-03-19T16:44:27Z</time>
      </trkpt>
      <trkpt lat="45.99125" lon="4.15599">
        <ele>378</ele>
        <time>2026-03-19T16:44:30Z</time>
      </trkpt>
      <trkpt lat="45.99035" lon="4.15711">
        <ele>375</ele>
        <time>2026-03-19T16:44:57Z</time>
      </trkpt>
      <trkpt lat="45.99025" lon="4.15725">
        <ele>375</ele>
        <time>2026-03-19T16:45:01Z</time>
      </trkpt>
      <trkpt lat="45.98996" lon="4.15758">
        <ele>372</ele>
        <time>2026-03-19T16:45:09Z</time>
      </trkpt>
      <trkpt lat="45.98982" lon="4.1577">
        <ele>371</ele>
        <time>2026-03-19T16:45:13Z</time>
      </trkpt>
      <trkpt lat="45.98942" lon="4.15793">
        <ele>367</ele>
        <time>2026-03-19T16:45:23Z</time>
      </trkpt>
      <trkpt lat="45.98918" lon="4.15807">
        <ele>365</ele>
        <time>2026-03-19T16:45:29Z</time>
      </trkpt>
      <trkpt lat="45.98883" lon="4.15831">
        <ele>363</ele>
        <time>2026-03-19T16:45:38Z</time>
      </trkpt>
      <trkpt lat="45.9877" lon="4.15911">
        <ele>357</ele>
        <time>2026-03-19T16:46:08Z</time>
      </trkpt>
      <trkpt lat="45.98735" lon="4.15938">
        <ele>355</ele>
        <time>2026-03-19T16:46:17Z</time>
      </trkpt>
      <trkpt lat="45.98728" lon="4.15948">
        <ele>354</ele>
        <time>2026-03-19T16:46:19Z</time>
      </trkpt>
      <trkpt lat="45.98723" lon="4.15975">
        <ele>352</ele>
        <time>2026-03-19T16:46:24Z</time>
      </trkpt>
      <trkpt lat="45.9872" lon="4.16018">
        <ele>351</ele>
        <time>2026-03-19T16:46:31Z</time>
      </trkpt>
      <trkpt lat="45.98716" lon="4.16032">
        <ele>351</ele>
        <time>2026-03-19T16:46:33Z</time>
      </trkpt>
      <trkpt lat="45.98687" lon="4.16081">
        <ele>350</ele>
        <time>2026-03-19T16:46:44Z</time>
      </trkpt>
      <trkpt lat="45.98672" lon="4.16109">
        <ele>352</ele>
        <time>2026-03-19T16:46:49Z</time>
      </trkpt>
      <trkpt lat="45.98639" lon="4.1616">
        <ele>354</ele>
        <time>2026-03-19T16:47:01Z</time>
      </trkpt>
      <trkpt lat="45.98615" lon="4.16185">
        <ele>356</ele>
        <time>2026-03-19T16:47:08Z</time>
      </trkpt>
      <trkpt lat="45.98589" lon="4.16216">
        <ele>357</ele>
        <time>2026-03-19T16:47:16Z</time>
      </trkpt>
      <trkpt lat="45.98571" lon="4.16241">
        <ele>358</ele>
        <time>2026-03-19T16:47:21Z</time>
      </trkpt>
      <trkpt lat="45.98526" lon="4.1632">
        <ele>362</ele>
        <time>2026-03-19T16:47:38Z</time>
      </trkpt>
      <trkpt lat="45.98509" lon="4.16353">
        <ele>363</ele>
        <time>2026-03-19T16:47:45Z</time>
      </trkpt>
      <trkpt lat="45.98496" lon="4.16385">
        <ele>364</ele>
        <time>2026-03-19T16:47:51Z</time>
      </trkpt>
      <trkpt lat="45.9849" lon="4.16406">
        <ele>364</ele>
        <time>2026-03-19T16:47:54Z</time>
      </trkpt>
      <trkpt lat="45.98485" lon="4.16412">
        <ele>364</ele>
        <time>2026-03-19T16:47:56Z</time>
      </trkpt>
      <trkpt lat="45.9849" lon="4.16427">
        <ele>365</ele>
        <time>2026-03-19T16:47:59Z</time>
      </trkpt>
      <trkpt lat="45.98501" lon="4.1647">
        <ele>365</ele>
        <time>2026-03-19T16:48:06Z</time>
      </trkpt>
      <trkpt lat="45.98507" lon="4.16468">
        <ele>365</ele>
        <time>2026-03-19T16:48:07Z</time>
      </trkpt>
      <trkpt lat="45.98522" lon="4.16471">
        <ele>365</ele>
        <time>2026-03-19T16:48:11Z</time>
      </trkpt>
      <trkpt lat="45.98548" lon="4.16478">
        <ele>366</ele>
        <time>2026-03-19T16:48:17Z</time>
      </trkpt>
      <trkpt lat="45.98555" lon="4.1648">
        <ele>366</ele>
        <time>2026-03-19T16:48:19Z</time>
      </trkpt>
      <trkpt lat="45.98618" lon="4.16485">
        <ele>368</ele>
        <time>2026-03-19T16:48:34Z</time>
      </trkpt>
      <trkpt lat="45.98644" lon="4.16489">
        <ele>370</ele>
        <time>2026-03-19T16:48:40Z</time>
      </trkpt>
      <trkpt lat="45.98652" lon="4.16492">
        <ele>370</ele>
        <time>2026-03-19T16:48:42Z</time>
      </trkpt>
      <trkpt lat="45.98687" lon="4.16508">
        <ele>372</ele>
        <time>2026-03-19T16:48:50Z</time>
      </trkpt>
      <trkpt lat="45.98736" lon="4.16536">
        <ele>374</ele>
        <time>2026-03-19T16:49:02Z</time>
      </trkpt>
      <trkpt lat="45.98768" lon="4.16563">
        <ele>376</ele>
        <time>2026-03-19T16:49:11Z</time>
      </trkpt>
      <trkpt lat="45.98837" lon="4.16615">
        <ele>381</ele>
        <time>2026-03-19T16:49:29Z</time>
      </trkpt>
      <trkpt lat="45.98853" lon="4.1663">
        <ele>382</ele>
        <time>2026-03-19T16:49:34Z</time>
      </trkpt>
      <trkpt lat="45.98865" lon="4.16638">
        <ele>383</ele>
        <time>2026-03-19T16:49:37Z</time>
      </trkpt>
      <trkpt lat="45.9889" lon="4.16643">
        <ele>385</ele>
        <time>2026-03-19T16:49:43Z</time>
      </trkpt>
      <trkpt lat="45.99008" lon="4.1667">
        <ele>394</ele>
        <time>2026-03-19T16:50:11Z</time>
      </trkpt>
      <trkpt lat="45.99028" lon="4.16678">
        <ele>395</ele>
        <time>2026-03-19T16:50:15Z</time>
      </trkpt>
      <trkpt lat="45.99067" lon="4.16699">
        <ele>399</ele>
        <time>2026-03-19T16:50:25Z</time>
      </trkpt>
      <trkpt lat="45.99109" lon="4.16728">
        <ele>403</ele>
        <time>2026-03-19T16:50:36Z</time>
      </trkpt>
      <trkpt lat="45.99134" lon="4.1675">
        <ele>405</ele>
        <time>2026-03-19T16:50:43Z</time>
      </trkpt>
      <trkpt lat="45.99139" lon="4.16756">
        <ele>406</ele>
        <time>2026-03-19T16:50:44Z</time>
      </trkpt>
      <trkpt lat="45.99151" lon="4.16774">
        <ele>406</ele>
        <time>2026-03-19T16:50:49Z</time>
      </trkpt>
      <trkpt lat="45.99172" lon="4.16798">
        <ele>408</ele>
        <time>2026-03-19T16:50:55Z</time>
      </trkpt>
      <trkpt lat="45.99195" lon="4.16823">
        <ele>408</ele>
        <time>2026-03-19T16:51:02Z</time>
      </trkpt>
      <trkpt lat="45.99218" lon="4.16858">
        <ele>408</ele>
        <time>2026-03-19T16:51:09Z</time>
      </trkpt>
      <trkpt lat="45.99251" lon="4.16898">
        <ele>409</ele>
        <time>2026-03-19T16:51:19Z</time>
      </trkpt>
      <trkpt lat="45.99254" lon="4.169">
        <ele>409</ele>
        <time>2026-03-19T16:51:20Z</time>
      </trkpt>
      <trkpt lat="45.99258" lon="4.16951">
        <ele>410</ele>
        <time>2026-03-19T16:51:28Z</time>
      </trkpt>
      <trkpt lat="45.9926" lon="4.16965">
        <ele>410</ele>
        <time>2026-03-19T16:51:31Z</time>
      </trkpt>
      <trkpt lat="45.99271" lon="4.16976">
        <ele>411</ele>
        <time>2026-03-19T16:51:34Z</time>
      </trkpt>
      <trkpt lat="45.9932" lon="4.17028">
        <ele>411</ele>
        <time>2026-03-19T16:51:48Z</time>
      </trkpt>
      <trkpt lat="45.99408" lon="4.17178">
        <ele>416</ele>
        <time>2026-03-19T16:52:20Z</time>
      </trkpt>
      <trkpt lat="45.99436" lon="4.17227">
        <ele>417</ele>
        <time>2026-03-19T16:52:30Z</time>
      </trkpt>
      <trkpt lat="45.99445" lon="4.17238">
        <ele>418</ele>
        <time>2026-03-19T16:52:33Z</time>
      </trkpt>
      <trkpt lat="45.9947" lon="4.17264">
        <ele>421</ele>
        <time>2026-03-19T16:52:40Z</time>
      </trkpt>
      <trkpt lat="45.99508" lon="4.17303">
        <ele>425</ele>
        <time>2026-03-19T16:52:51Z</time>
      </trkpt>
      <trkpt lat="45.99528" lon="4.17324">
        <ele>426</ele>
        <time>2026-03-19T16:52:57Z</time>
      </trkpt>
      <trkpt lat="45.99536" lon="4.17324">
        <ele>427</ele>
        <time>2026-03-19T16:52:59Z</time>
      </trkpt>
      <trkpt lat="45.99543" lon="4.17342">
        <ele>427</ele>
        <time>2026-03-19T16:53:02Z</time>
      </trkpt>
      <trkpt lat="45.99554" lon="4.17374">
        <ele>427</ele>
        <time>2026-03-19T16:53:08Z</time>
      </trkpt>
      <trkpt lat="45.99575" lon="4.17434">
        <ele>427</ele>
        <time>2026-03-19T16:53:19Z</time>
      </trkpt>
      <trkpt lat="45.99584" lon="4.17451">
        <ele>428</ele>
        <time>2026-03-19T16:53:22Z</time>
      </trkpt>
      <trkpt lat="45.99595" lon="4.17464">
        <ele>428</ele>
        <time>2026-03-19T16:53:26Z</time>
      </trkpt>
      <trkpt lat="45.99598" lon="4.17466">
        <ele>428</ele>
        <time>2026-03-19T16:53:26Z</time>
      </trkpt>
      <trkpt lat="45.99608" lon="4.17473">
        <ele>429</ele>
        <time>2026-03-19T16:53:29Z</time>
      </trkpt>
      <trkpt lat="45.9972" lon="4.1753">
        <ele>435</ele>
        <time>2026-03-19T16:53:57Z</time>
      </trkpt>
      <trkpt lat="45.99792" lon="4.17569">
        <ele>436</ele>
        <time>2026-03-19T16:54:15Z</time>
      </trkpt>
      <trkpt lat="45.99799" lon="4.1757">
        <ele>436</ele>
        <time>2026-03-19T16:54:16Z</time>
      </trkpt>
      <trkpt lat="45.99804" lon="4.17569">
        <ele>436</ele>
        <time>2026-03-19T16:54:18Z</time>
      </trkpt>
      <trkpt lat="45.99804" lon="4.17571">
        <ele>436</ele>
        <time>2026-03-19T16:54:18Z</time>
      </trkpt>
      <trkpt lat="45.99808" lon="4.17575">
        <ele>436</ele>
        <time>2026-03-19T16:54:19Z</time>
      </trkpt>
      <trkpt lat="45.99811" lon="4.17575">
        <ele>436</ele>
        <time>2026-03-19T16:54:20Z</time>
      </trkpt>
      <trkpt lat="45.99814" lon="4.17571">
        <ele>436</ele>
        <time>2026-03-19T16:54:21Z</time>
      </trkpt>
      <trkpt lat="45.99821" lon="4.17589">
        <ele>436</ele>
        <time>2026-03-19T16:54:24Z</time>
      </trkpt>
      <trkpt lat="45.9985" lon="4.1761">
        <ele>436</ele>
        <time>2026-03-19T16:54:32Z</time>
      </trkpt>
      <trkpt lat="45.99852" lon="4.17616">
        <ele>436</ele>
        <time>2026-03-19T16:54:33Z</time>
      </trkpt>
    </trkseg>
  </trk>
</gpx>